<?xml version="1.0" encoding="UTF-8" standalone="no" ?>
<gpx xmlns="http://www.topografix.com/GPX/1/1" xmlns:xsi="http://www.w3.org/2001/XMLSchema-instance" xsi:schemaLocation="http://www.topografix.com/GPX/1/1 http://www.topografix.com/GPX/1/1/gpx.xsd" version="1.1" creator="VisuGPX - https://www.visugpx.com">
  <metadata>
    <name>Créon facilme</name>
    <desc><![CDATA[Randonnée VTT]]></desc>
  </metadata>
  <trk>
    <name><![CDATA[Debutants nouveau chemin creon]]></name>
    <trkseg>
      <trkpt lat="44.77644" lon="-0.34845">
        <ele>100</ele>
        <time>2013-08-31T11:55:52Z</time>
      </trkpt>
      <trkpt lat="44.77644" lon="-0.34844">
        <ele>100</ele>
        <time>2013-08-31T11:56:08Z</time>
      </trkpt>
      <trkpt lat="44.77643" lon="-0.34843">
        <ele>100</ele>
        <time>2013-08-31T11:56:22Z</time>
      </trkpt>
      <trkpt lat="44.77642" lon="-0.34843">
        <ele>100</ele>
        <time>2013-08-31T11:56:44Z</time>
      </trkpt>
      <trkpt lat="44.77643" lon="-0.34846">
        <ele>100</ele>
        <time>2013-08-31T11:57:07Z</time>
      </trkpt>
      <trkpt lat="44.77643" lon="-0.34846">
        <ele>100</ele>
        <time>2013-08-31T11:57:28Z</time>
      </trkpt>
      <trkpt lat="44.77643" lon="-0.34845">
        <ele>100</ele>
        <time>2013-08-31T11:57:46Z</time>
      </trkpt>
      <trkpt lat="44.77642" lon="-0.34846">
        <ele>100</ele>
        <time>2013-08-31T11:58:07Z</time>
      </trkpt>
      <trkpt lat="44.77643" lon="-0.34845">
        <ele>100</ele>
        <time>2013-08-31T11:58:27Z</time>
      </trkpt>
      <trkpt lat="44.77643" lon="-0.34846">
        <ele>100</ele>
        <time>2013-08-31T11:58:50Z</time>
      </trkpt>
      <trkpt lat="44.77643" lon="-0.34846">
        <ele>100</ele>
        <time>2013-08-31T11:59:11Z</time>
      </trkpt>
      <trkpt lat="44.77643" lon="-0.34847">
        <ele>100</ele>
        <time>2013-08-31T11:59:29Z</time>
      </trkpt>
      <trkpt lat="44.77642" lon="-0.34847">
        <ele>100</ele>
        <time>2013-08-31T11:59:50Z</time>
      </trkpt>
      <trkpt lat="44.77642" lon="-0.34846">
        <ele>100</ele>
        <time>2013-08-31T12:00:11Z</time>
      </trkpt>
      <trkpt lat="44.77642" lon="-0.34846">
        <ele>100</ele>
        <time>2013-08-31T12:00:32Z</time>
      </trkpt>
      <trkpt lat="44.77642" lon="-0.34845">
        <ele>100</ele>
        <time>2013-08-31T12:00:54Z</time>
      </trkpt>
      <trkpt lat="44.77642" lon="-0.34845">
        <ele>100</ele>
        <time>2013-08-31T12:01:18Z</time>
      </trkpt>
      <trkpt lat="44.77642" lon="-0.34845">
        <ele>100</ele>
        <time>2013-08-31T12:01:43Z</time>
      </trkpt>
      <trkpt lat="44.77642" lon="-0.34845">
        <ele>100</ele>
        <time>2013-08-31T12:02:05Z</time>
      </trkpt>
      <trkpt lat="44.77642" lon="-0.34845">
        <ele>100</ele>
        <time>2013-08-31T12:02:29Z</time>
      </trkpt>
      <trkpt lat="44.77642" lon="-0.34845">
        <ele>100</ele>
        <time>2013-08-31T12:02:52Z</time>
      </trkpt>
      <trkpt lat="44.77642" lon="-0.34845">
        <ele>100</ele>
        <time>2013-08-31T12:03:18Z</time>
      </trkpt>
      <trkpt lat="44.77642" lon="-0.34845">
        <ele>100</ele>
        <time>2013-08-31T12:03:37Z</time>
      </trkpt>
      <trkpt lat="44.77642" lon="-0.34845">
        <ele>100</ele>
        <time>2013-08-31T12:04:00Z</time>
      </trkpt>
      <trkpt lat="44.77642" lon="-0.34845">
        <ele>100</ele>
        <time>2013-08-31T12:04:25Z</time>
      </trkpt>
      <trkpt lat="44.77642" lon="-0.34845">
        <ele>100</ele>
        <time>2013-08-31T12:04:48Z</time>
      </trkpt>
      <trkpt lat="44.77642" lon="-0.34845">
        <ele>100</ele>
        <time>2013-08-31T12:05:10Z</time>
      </trkpt>
      <trkpt lat="44.77642" lon="-0.34845">
        <ele>100</ele>
        <time>2013-08-31T12:05:34Z</time>
      </trkpt>
      <trkpt lat="44.77642" lon="-0.34844">
        <ele>100</ele>
        <time>2013-08-31T12:05:56Z</time>
      </trkpt>
      <trkpt lat="44.77642" lon="-0.34845">
        <ele>100</ele>
        <time>2013-08-31T12:06:18Z</time>
      </trkpt>
      <trkpt lat="44.77642" lon="-0.34845">
        <ele>100</ele>
        <time>2013-08-31T12:06:37Z</time>
      </trkpt>
      <trkpt lat="44.77642" lon="-0.34845">
        <ele>100</ele>
        <time>2013-08-31T12:07:00Z</time>
      </trkpt>
      <trkpt lat="44.77642" lon="-0.34845">
        <ele>100</ele>
        <time>2013-08-31T12:07:25Z</time>
      </trkpt>
      <trkpt lat="44.77642" lon="-0.34845">
        <ele>100</ele>
        <time>2013-08-31T12:07:51Z</time>
      </trkpt>
      <trkpt lat="44.77642" lon="-0.34845">
        <ele>100</ele>
        <time>2013-08-31T12:08:13Z</time>
      </trkpt>
      <trkpt lat="44.77642" lon="-0.34844">
        <ele>100</ele>
        <time>2013-08-31T12:08:36Z</time>
      </trkpt>
      <trkpt lat="44.77642" lon="-0.34844">
        <ele>100</ele>
        <time>2013-08-31T12:08:59Z</time>
      </trkpt>
      <trkpt lat="44.77642" lon="-0.34844">
        <ele>100</ele>
        <time>2013-08-31T12:09:23Z</time>
      </trkpt>
      <trkpt lat="44.77642" lon="-0.34845">
        <ele>100</ele>
        <time>2013-08-31T12:09:44Z</time>
      </trkpt>
      <trkpt lat="44.77642" lon="-0.34844">
        <ele>100</ele>
        <time>2013-08-31T12:10:08Z</time>
      </trkpt>
      <trkpt lat="44.77642" lon="-0.34844">
        <ele>100</ele>
        <time>2013-08-31T12:10:31Z</time>
      </trkpt>
      <trkpt lat="44.77642" lon="-0.34845">
        <ele>100</ele>
        <time>2013-08-31T12:10:49Z</time>
      </trkpt>
      <trkpt lat="44.77642" lon="-0.34844">
        <ele>100</ele>
        <time>2013-08-31T12:11:06Z</time>
      </trkpt>
      <trkpt lat="44.77642" lon="-0.34844">
        <ele>100</ele>
        <time>2013-08-31T12:11:26Z</time>
      </trkpt>
      <trkpt lat="44.77642" lon="-0.34844">
        <ele>100</ele>
        <time>2013-08-31T12:11:46Z</time>
      </trkpt>
      <trkpt lat="44.77642" lon="-0.34844">
        <ele>100</ele>
        <time>2013-08-31T12:12:02Z</time>
      </trkpt>
      <trkpt lat="44.77642" lon="-0.34844">
        <ele>100</ele>
        <time>2013-08-31T12:12:18Z</time>
      </trkpt>
      <trkpt lat="44.77642" lon="-0.34844">
        <ele>100</ele>
        <time>2013-08-31T12:12:35Z</time>
      </trkpt>
      <trkpt lat="44.77642" lon="-0.34844">
        <ele>100</ele>
        <time>2013-08-31T12:12:51Z</time>
      </trkpt>
      <trkpt lat="44.77642" lon="-0.34845">
        <ele>100</ele>
        <time>2013-08-31T12:13:08Z</time>
      </trkpt>
      <trkpt lat="44.77642" lon="-0.34844">
        <ele>100</ele>
        <time>2013-08-31T12:13:23Z</time>
      </trkpt>
      <trkpt lat="44.77642" lon="-0.34844">
        <ele>100</ele>
        <time>2013-08-31T12:13:24Z</time>
      </trkpt>
      <trkpt lat="44.77643" lon="-0.34843">
        <ele>100</ele>
        <time>2013-08-31T12:13:30Z</time>
      </trkpt>
      <trkpt lat="44.77643" lon="-0.34845">
        <ele>100</ele>
        <time>2013-08-31T12:13:38Z</time>
      </trkpt>
      <trkpt lat="44.77642" lon="-0.34846">
        <ele>100</ele>
        <time>2013-08-31T12:13:46Z</time>
      </trkpt>
      <trkpt lat="44.7764" lon="-0.34845">
        <ele>100</ele>
        <time>2013-08-31T12:13:52Z</time>
      </trkpt>
      <trkpt lat="44.7764" lon="-0.34844">
        <ele>100</ele>
        <time>2013-08-31T12:13:58Z</time>
      </trkpt>
      <trkpt lat="44.77641" lon="-0.34845">
        <ele>100</ele>
        <time>2013-08-31T12:14:05Z</time>
      </trkpt>
      <trkpt lat="44.7764" lon="-0.34846">
        <ele>100</ele>
        <time>2013-08-31T12:14:15Z</time>
      </trkpt>
      <trkpt lat="44.7764" lon="-0.34846">
        <ele>100</ele>
        <time>2013-08-31T12:14:22Z</time>
      </trkpt>
      <trkpt lat="44.7764" lon="-0.34846">
        <ele>100</ele>
        <time>2013-08-31T12:14:31Z</time>
      </trkpt>
      <trkpt lat="44.7764" lon="-0.34846">
        <ele>100</ele>
        <time>2013-08-31T12:14:38Z</time>
      </trkpt>
      <trkpt lat="44.77641" lon="-0.34846">
        <ele>100</ele>
        <time>2013-08-31T12:14:49Z</time>
      </trkpt>
      <trkpt lat="44.77641" lon="-0.34847">
        <ele>100</ele>
        <time>2013-08-31T12:14:55Z</time>
      </trkpt>
      <trkpt lat="44.77641" lon="-0.34847">
        <ele>100</ele>
        <time>2013-08-31T12:15:03Z</time>
      </trkpt>
      <trkpt lat="44.77641" lon="-0.34847">
        <ele>100</ele>
        <time>2013-08-31T12:15:11Z</time>
      </trkpt>
      <trkpt lat="44.77641" lon="-0.34847">
        <ele>100</ele>
        <time>2013-08-31T12:15:23Z</time>
      </trkpt>
      <trkpt lat="44.77641" lon="-0.34847">
        <ele>100</ele>
        <time>2013-08-31T12:15:34Z</time>
      </trkpt>
      <trkpt lat="44.7764" lon="-0.34847">
        <ele>100</ele>
        <time>2013-08-31T12:15:44Z</time>
      </trkpt>
      <trkpt lat="44.7764" lon="-0.34847">
        <ele>100</ele>
        <time>2013-08-31T12:15:57Z</time>
      </trkpt>
      <trkpt lat="44.7764" lon="-0.34848">
        <ele>100</ele>
        <time>2013-08-31T12:16:02Z</time>
      </trkpt>
      <trkpt lat="44.7764" lon="-0.34847">
        <ele>100</ele>
        <time>2013-08-31T12:16:11Z</time>
      </trkpt>
      <trkpt lat="44.7764" lon="-0.34847">
        <ele>100</ele>
        <time>2013-08-31T12:16:21Z</time>
      </trkpt>
      <trkpt lat="44.77639" lon="-0.34846">
        <ele>100</ele>
        <time>2013-08-31T12:16:26Z</time>
      </trkpt>
      <trkpt lat="44.7764" lon="-0.34847">
        <ele>100</ele>
        <time>2013-08-31T12:16:33Z</time>
      </trkpt>
      <trkpt lat="44.77639" lon="-0.34847">
        <ele>100</ele>
        <time>2013-08-31T12:16:45Z</time>
      </trkpt>
      <trkpt lat="44.77639" lon="-0.34848">
        <ele>100</ele>
        <time>2013-08-31T12:16:54Z</time>
      </trkpt>
      <trkpt lat="44.77642" lon="-0.34862">
        <ele>100</ele>
        <time>2013-08-31T12:17:01Z</time>
      </trkpt>
      <trkpt lat="44.77642" lon="-0.34864">
        <ele>100</ele>
        <time>2013-08-31T12:17:02Z</time>
      </trkpt>
      <trkpt lat="44.77633" lon="-0.34876">
        <ele>99</ele>
        <time>2013-08-31T12:17:09Z</time>
      </trkpt>
      <trkpt lat="44.77633" lon="-0.34876">
        <ele>100</ele>
        <time>2013-08-31T12:17:13Z</time>
      </trkpt>
      <trkpt lat="44.77627" lon="-0.34869">
        <ele>100</ele>
        <time>2013-08-31T12:17:18Z</time>
      </trkpt>
      <trkpt lat="44.77629" lon="-0.34841">
        <ele>100</ele>
        <time>2013-08-31T12:17:25Z</time>
      </trkpt>
      <trkpt lat="44.77629" lon="-0.34801">
        <ele>101</ele>
        <time>2013-08-31T12:17:34Z</time>
      </trkpt>
      <trkpt lat="44.77626" lon="-0.34752">
        <ele>102</ele>
        <time>2013-08-31T12:17:44Z</time>
      </trkpt>
      <trkpt lat="44.77621" lon="-0.34712">
        <ele>102</ele>
        <time>2013-08-31T12:17:53Z</time>
      </trkpt>
      <trkpt lat="44.77608" lon="-0.34685">
        <ele>103</ele>
        <time>2013-08-31T12:18:00Z</time>
      </trkpt>
      <trkpt lat="44.77586" lon="-0.34661">
        <ele>103</ele>
        <time>2013-08-31T12:18:08Z</time>
      </trkpt>
      <trkpt lat="44.77581" lon="-0.34659">
        <ele>103</ele>
        <time>2013-08-31T12:18:10Z</time>
      </trkpt>
      <trkpt lat="44.77571" lon="-0.3465">
        <ele>104</ele>
        <time>2013-08-31T12:18:14Z</time>
      </trkpt>
      <trkpt lat="44.77556" lon="-0.34633">
        <ele>104</ele>
        <time>2013-08-31T12:18:21Z</time>
      </trkpt>
      <trkpt lat="44.77531" lon="-0.34619">
        <ele>104</ele>
        <time>2013-08-31T12:18:29Z</time>
      </trkpt>
      <trkpt lat="44.775" lon="-0.34605">
        <ele>105</ele>
        <time>2013-08-31T12:18:38Z</time>
      </trkpt>
      <trkpt lat="44.77476" lon="-0.34593">
        <ele>105</ele>
        <time>2013-08-31T12:18:46Z</time>
      </trkpt>
      <trkpt lat="44.77454" lon="-0.34582">
        <ele>105</ele>
        <time>2013-08-31T12:18:53Z</time>
      </trkpt>
      <trkpt lat="44.77425" lon="-0.34577">
        <ele>105</ele>
        <time>2013-08-31T12:19:01Z</time>
      </trkpt>
      <trkpt lat="44.77401" lon="-0.34589">
        <ele>105</ele>
        <time>2013-08-31T12:19:08Z</time>
      </trkpt>
      <trkpt lat="44.77368" lon="-0.34623">
        <ele>104</ele>
        <time>2013-08-31T12:19:19Z</time>
      </trkpt>
      <trkpt lat="44.77355" lon="-0.34647">
        <ele>104</ele>
        <time>2013-08-31T12:19:25Z</time>
      </trkpt>
      <trkpt lat="44.77349" lon="-0.34661">
        <ele>104</ele>
        <time>2013-08-31T12:19:28Z</time>
      </trkpt>
      <trkpt lat="44.77336" lon="-0.34659">
        <ele>104</ele>
        <time>2013-08-31T12:19:32Z</time>
      </trkpt>
      <trkpt lat="44.77316" lon="-0.34631">
        <ele>104</ele>
        <time>2013-08-31T12:19:40Z</time>
      </trkpt>
      <trkpt lat="44.77294" lon="-0.34595">
        <ele>105</ele>
        <time>2013-08-31T12:19:49Z</time>
      </trkpt>
      <trkpt lat="44.77275" lon="-0.34587">
        <ele>105</ele>
        <time>2013-08-31T12:19:55Z</time>
      </trkpt>
      <trkpt lat="44.77256" lon="-0.34574">
        <ele>105</ele>
        <time>2013-08-31T12:20:02Z</time>
      </trkpt>
      <trkpt lat="44.77234" lon="-0.34559">
        <ele>105</ele>
        <time>2013-08-31T12:20:10Z</time>
      </trkpt>
      <trkpt lat="44.77215" lon="-0.34545">
        <ele>105</ele>
        <time>2013-08-31T12:20:17Z</time>
      </trkpt>
      <trkpt lat="44.7719" lon="-0.34531">
        <ele>105</ele>
        <time>2013-08-31T12:20:25Z</time>
      </trkpt>
      <trkpt lat="44.77162" lon="-0.34516">
        <ele>105</ele>
        <time>2013-08-31T12:20:33Z</time>
      </trkpt>
      <trkpt lat="44.77138" lon="-0.34504">
        <ele>105</ele>
        <time>2013-08-31T12:20:39Z</time>
      </trkpt>
      <trkpt lat="44.77102" lon="-0.34483">
        <ele>105</ele>
        <time>2013-08-31T12:20:48Z</time>
      </trkpt>
      <trkpt lat="44.77076" lon="-0.3447">
        <ele>105</ele>
        <time>2013-08-31T12:20:56Z</time>
      </trkpt>
      <trkpt lat="44.77043" lon="-0.34451">
        <ele>105</ele>
        <time>2013-08-31T12:21:06Z</time>
      </trkpt>
      <trkpt lat="44.77014" lon="-0.34438">
        <ele>105</ele>
        <time>2013-08-31T12:21:15Z</time>
      </trkpt>
      <trkpt lat="44.76986" lon="-0.3443">
        <ele>105</ele>
        <time>2013-08-31T12:21:24Z</time>
      </trkpt>
      <trkpt lat="44.76952" lon="-0.34414">
        <ele>104</ele>
        <time>2013-08-31T12:21:34Z</time>
      </trkpt>
      <trkpt lat="44.76925" lon="-0.34395">
        <ele>103</ele>
        <time>2013-08-31T12:21:43Z</time>
      </trkpt>
      <trkpt lat="44.769" lon="-0.34376">
        <ele>103</ele>
        <time>2013-08-31T12:21:51Z</time>
      </trkpt>
      <trkpt lat="44.76867" lon="-0.34354">
        <ele>103</ele>
        <time>2013-08-31T12:22:01Z</time>
      </trkpt>
      <trkpt lat="44.76844" lon="-0.34339">
        <ele>102</ele>
        <time>2013-08-31T12:22:09Z</time>
      </trkpt>
      <trkpt lat="44.76813" lon="-0.3432">
        <ele>103</ele>
        <time>2013-08-31T12:22:19Z</time>
      </trkpt>
      <trkpt lat="44.76784" lon="-0.34301">
        <ele>103</ele>
        <time>2013-08-31T12:22:29Z</time>
      </trkpt>
      <trkpt lat="44.76746" lon="-0.34277">
        <ele>103</ele>
        <time>2013-08-31T12:22:40Z</time>
      </trkpt>
      <trkpt lat="44.7673" lon="-0.34266">
        <ele>103</ele>
        <time>2013-08-31T12:22:46Z</time>
      </trkpt>
      <trkpt lat="44.76709" lon="-0.34254">
        <ele>103</ele>
        <time>2013-08-31T12:22:53Z</time>
      </trkpt>
      <trkpt lat="44.767" lon="-0.34246">
        <ele>103</ele>
        <time>2013-08-31T12:22:57Z</time>
      </trkpt>
      <trkpt lat="44.767" lon="-0.34242">
        <ele>103</ele>
        <time>2013-08-31T12:22:58Z</time>
      </trkpt>
      <trkpt lat="44.767" lon="-0.34239">
        <ele>103</ele>
        <time>2013-08-31T12:22:59Z</time>
      </trkpt>
      <trkpt lat="44.76701" lon="-0.34238">
        <ele>103</ele>
        <time>2013-08-31T12:23:00Z</time>
      </trkpt>
      <trkpt lat="44.76702" lon="-0.34236">
        <ele>103</ele>
        <time>2013-08-31T12:23:01Z</time>
      </trkpt>
      <trkpt lat="44.7671" lon="-0.3421">
        <ele>102</ele>
        <time>2013-08-31T12:23:08Z</time>
      </trkpt>
      <trkpt lat="44.76721" lon="-0.34173">
        <ele>100</ele>
        <time>2013-08-31T12:23:15Z</time>
      </trkpt>
      <trkpt lat="44.76732" lon="-0.34137">
        <ele>98</ele>
        <time>2013-08-31T12:23:22Z</time>
      </trkpt>
      <trkpt lat="44.7674" lon="-0.34105">
        <ele>97</ele>
        <time>2013-08-31T12:23:28Z</time>
      </trkpt>
      <trkpt lat="44.76741" lon="-0.34099">
        <ele>96</ele>
        <time>2013-08-31T12:23:29Z</time>
      </trkpt>
      <trkpt lat="44.76744" lon="-0.34085">
        <ele>96</ele>
        <time>2013-08-31T12:23:31Z</time>
      </trkpt>
      <trkpt lat="44.7675" lon="-0.34026">
        <ele>93</ele>
        <time>2013-08-31T12:23:38Z</time>
      </trkpt>
      <trkpt lat="44.76752" lon="-0.33987">
        <ele>89</ele>
        <time>2013-08-31T12:23:43Z</time>
      </trkpt>
      <trkpt lat="44.76746" lon="-0.33966">
        <ele>87</ele>
        <time>2013-08-31T12:23:47Z</time>
      </trkpt>
      <trkpt lat="44.76742" lon="-0.33964">
        <ele>87</ele>
        <time>2013-08-31T12:23:48Z</time>
      </trkpt>
      <trkpt lat="44.76708" lon="-0.33957">
        <ele>86</ele>
        <time>2013-08-31T12:23:57Z</time>
      </trkpt>
      <trkpt lat="44.76686" lon="-0.33951">
        <ele>86</ele>
        <time>2013-08-31T12:24:03Z</time>
      </trkpt>
      <trkpt lat="44.76658" lon="-0.33945">
        <ele>87</ele>
        <time>2013-08-31T12:24:11Z</time>
      </trkpt>
      <trkpt lat="44.76633" lon="-0.33941">
        <ele>87</ele>
        <time>2013-08-31T12:24:18Z</time>
      </trkpt>
      <trkpt lat="44.76614" lon="-0.33929">
        <ele>86</ele>
        <time>2013-08-31T12:24:24Z</time>
      </trkpt>
      <trkpt lat="44.76587" lon="-0.33914">
        <ele>85</ele>
        <time>2013-08-31T12:24:32Z</time>
      </trkpt>
      <trkpt lat="44.76559" lon="-0.33898">
        <ele>84</ele>
        <time>2013-08-31T12:24:41Z</time>
      </trkpt>
      <trkpt lat="44.76533" lon="-0.33884">
        <ele>83</ele>
        <time>2013-08-31T12:24:49Z</time>
      </trkpt>
      <trkpt lat="44.76529" lon="-0.33875">
        <ele>81</ele>
        <time>2013-08-31T12:24:53Z</time>
      </trkpt>
      <trkpt lat="44.76536" lon="-0.33859">
        <ele>79</ele>
        <time>2013-08-31T12:24:59Z</time>
      </trkpt>
      <trkpt lat="44.76541" lon="-0.33844">
        <ele>78</ele>
        <time>2013-08-31T12:25:03Z</time>
      </trkpt>
      <trkpt lat="44.76535" lon="-0.33828">
        <ele>77</ele>
        <time>2013-08-31T12:25:08Z</time>
      </trkpt>
      <trkpt lat="44.76533" lon="-0.33826">
        <ele>77</ele>
        <time>2013-08-31T12:25:09Z</time>
      </trkpt>
      <trkpt lat="44.76524" lon="-0.33821">
        <ele>77</ele>
        <time>2013-08-31T12:25:15Z</time>
      </trkpt>
      <trkpt lat="44.76517" lon="-0.33819">
        <ele>76</ele>
        <time>2013-08-31T12:25:21Z</time>
      </trkpt>
      <trkpt lat="44.76516" lon="-0.33819">
        <ele>76</ele>
        <time>2013-08-31T12:25:22Z</time>
      </trkpt>
      <trkpt lat="44.76512" lon="-0.33816">
        <ele>76</ele>
        <time>2013-08-31T12:25:26Z</time>
      </trkpt>
      <trkpt lat="44.76502" lon="-0.3381">
        <ele>76</ele>
        <time>2013-08-31T12:25:33Z</time>
      </trkpt>
      <trkpt lat="44.76487" lon="-0.3381">
        <ele>75</ele>
        <time>2013-08-31T12:25:39Z</time>
      </trkpt>
      <trkpt lat="44.76467" lon="-0.33819">
        <ele>75</ele>
        <time>2013-08-31T12:25:45Z</time>
      </trkpt>
      <trkpt lat="44.76449" lon="-0.33823">
        <ele>75</ele>
        <time>2013-08-31T12:25:51Z</time>
      </trkpt>
      <trkpt lat="44.76423" lon="-0.33837">
        <ele>74</ele>
        <time>2013-08-31T12:25:58Z</time>
      </trkpt>
      <trkpt lat="44.76392" lon="-0.33862">
        <ele>73</ele>
        <time>2013-08-31T12:26:07Z</time>
      </trkpt>
      <trkpt lat="44.76362" lon="-0.33883">
        <ele>73</ele>
        <time>2013-08-31T12:26:14Z</time>
      </trkpt>
      <trkpt lat="44.76339" lon="-0.339">
        <ele>72</ele>
        <time>2013-08-31T12:26:21Z</time>
      </trkpt>
      <trkpt lat="44.76311" lon="-0.33923">
        <ele>70</ele>
        <time>2013-08-31T12:26:28Z</time>
      </trkpt>
      <trkpt lat="44.76307" lon="-0.33927">
        <ele>70</ele>
        <time>2013-08-31T12:26:29Z</time>
      </trkpt>
      <trkpt lat="44.76268" lon="-0.33961">
        <ele>69</ele>
        <time>2013-08-31T12:26:39Z</time>
      </trkpt>
      <trkpt lat="44.76252" lon="-0.33967">
        <ele>68</ele>
        <time>2013-08-31T12:26:44Z</time>
      </trkpt>
      <trkpt lat="44.76238" lon="-0.33958">
        <ele>68</ele>
        <time>2013-08-31T12:26:50Z</time>
      </trkpt>
      <trkpt lat="44.76235" lon="-0.33954">
        <ele>68</ele>
        <time>2013-08-31T12:26:52Z</time>
      </trkpt>
      <trkpt lat="44.76227" lon="-0.33938">
        <ele>68</ele>
        <time>2013-08-31T12:27:00Z</time>
      </trkpt>
      <trkpt lat="44.76217" lon="-0.33923">
        <ele>68</ele>
        <time>2013-08-31T12:27:07Z</time>
      </trkpt>
      <trkpt lat="44.76206" lon="-0.33897">
        <ele>70</ele>
        <time>2013-08-31T12:27:14Z</time>
      </trkpt>
      <trkpt lat="44.7619" lon="-0.33871">
        <ele>72</ele>
        <time>2013-08-31T12:27:23Z</time>
      </trkpt>
      <trkpt lat="44.76186" lon="-0.33864">
        <ele>72</ele>
        <time>2013-08-31T12:27:26Z</time>
      </trkpt>
      <trkpt lat="44.76184" lon="-0.33844">
        <ele>73</ele>
        <time>2013-08-31T12:27:33Z</time>
      </trkpt>
      <trkpt lat="44.76182" lon="-0.33827">
        <ele>73</ele>
        <time>2013-08-31T12:27:39Z</time>
      </trkpt>
      <trkpt lat="44.76177" lon="-0.33805">
        <ele>74</ele>
        <time>2013-08-31T12:27:48Z</time>
      </trkpt>
      <trkpt lat="44.76173" lon="-0.33796">
        <ele>74</ele>
        <time>2013-08-31T12:27:53Z</time>
      </trkpt>
      <trkpt lat="44.76171" lon="-0.33791">
        <ele>75</ele>
        <time>2013-08-31T12:27:56Z</time>
      </trkpt>
      <trkpt lat="44.76164" lon="-0.33782">
        <ele>76</ele>
        <time>2013-08-31T12:28:01Z</time>
      </trkpt>
      <trkpt lat="44.76155" lon="-0.33773">
        <ele>77</ele>
        <time>2013-08-31T12:28:08Z</time>
      </trkpt>
      <trkpt lat="44.76147" lon="-0.33774">
        <ele>78</ele>
        <time>2013-08-31T12:28:16Z</time>
      </trkpt>
      <trkpt lat="44.7614" lon="-0.33757">
        <ele>79</ele>
        <time>2013-08-31T12:28:23Z</time>
      </trkpt>
      <trkpt lat="44.76128" lon="-0.33756">
        <ele>80</ele>
        <time>2013-08-31T12:28:30Z</time>
      </trkpt>
      <trkpt lat="44.76116" lon="-0.33753">
        <ele>82</ele>
        <time>2013-08-31T12:28:37Z</time>
      </trkpt>
      <trkpt lat="44.76111" lon="-0.33752">
        <ele>83</ele>
        <time>2013-08-31T12:28:41Z</time>
      </trkpt>
      <trkpt lat="44.76102" lon="-0.33751">
        <ele>85</ele>
        <time>2013-08-31T12:28:46Z</time>
      </trkpt>
      <trkpt lat="44.76091" lon="-0.3375">
        <ele>87</ele>
        <time>2013-08-31T12:28:53Z</time>
      </trkpt>
      <trkpt lat="44.76076" lon="-0.33756">
        <ele>89</ele>
        <time>2013-08-31T12:29:04Z</time>
      </trkpt>
      <trkpt lat="44.7607" lon="-0.33759">
        <ele>90</ele>
        <time>2013-08-31T12:29:13Z</time>
      </trkpt>
      <trkpt lat="44.76067" lon="-0.3376">
        <ele>91</ele>
        <time>2013-08-31T12:29:15Z</time>
      </trkpt>
      <trkpt lat="44.76061" lon="-0.33761">
        <ele>92</ele>
        <time>2013-08-31T12:29:19Z</time>
      </trkpt>
      <trkpt lat="44.76042" lon="-0.33761">
        <ele>94</ele>
        <time>2013-08-31T12:29:30Z</time>
      </trkpt>
      <trkpt lat="44.76034" lon="-0.33762">
        <ele>95</ele>
        <time>2013-08-31T12:29:35Z</time>
      </trkpt>
      <trkpt lat="44.7601" lon="-0.33767">
        <ele>96</ele>
        <time>2013-08-31T12:29:43Z</time>
      </trkpt>
      <trkpt lat="44.76007" lon="-0.33767">
        <ele>97</ele>
        <time>2013-08-31T12:29:44Z</time>
      </trkpt>
      <trkpt lat="44.75999" lon="-0.33769">
        <ele>97</ele>
        <time>2013-08-31T12:29:48Z</time>
      </trkpt>
      <trkpt lat="44.75976" lon="-0.33772">
        <ele>97</ele>
        <time>2013-08-31T12:29:57Z</time>
      </trkpt>
      <trkpt lat="44.75957" lon="-0.33774">
        <ele>98</ele>
        <time>2013-08-31T12:30:04Z</time>
      </trkpt>
      <trkpt lat="44.75942" lon="-0.33769">
        <ele>97</ele>
        <time>2013-08-31T12:30:12Z</time>
      </trkpt>
      <trkpt lat="44.75941" lon="-0.33767">
        <ele>97</ele>
        <time>2013-08-31T12:30:18Z</time>
      </trkpt>
      <trkpt lat="44.75941" lon="-0.33765">
        <ele>97</ele>
        <time>2013-08-31T12:30:31Z</time>
      </trkpt>
      <trkpt lat="44.75941" lon="-0.33764">
        <ele>97</ele>
        <time>2013-08-31T12:30:46Z</time>
      </trkpt>
      <trkpt lat="44.75942" lon="-0.33765">
        <ele>97</ele>
        <time>2013-08-31T12:31:01Z</time>
      </trkpt>
      <trkpt lat="44.75942" lon="-0.33764">
        <ele>97</ele>
        <time>2013-08-31T12:31:19Z</time>
      </trkpt>
      <trkpt lat="44.75943" lon="-0.33764">
        <ele>97</ele>
        <time>2013-08-31T12:31:38Z</time>
      </trkpt>
      <trkpt lat="44.75943" lon="-0.33763">
        <ele>97</ele>
        <time>2013-08-31T12:31:46Z</time>
      </trkpt>
      <trkpt lat="44.75943" lon="-0.33763">
        <ele>97</ele>
        <time>2013-08-31T12:31:54Z</time>
      </trkpt>
      <trkpt lat="44.75943" lon="-0.33762">
        <ele>98</ele>
        <time>2013-08-31T12:32:07Z</time>
      </trkpt>
      <trkpt lat="44.75943" lon="-0.33762">
        <ele>97</ele>
        <time>2013-08-31T12:32:26Z</time>
      </trkpt>
      <trkpt lat="44.75942" lon="-0.33762">
        <ele>97</ele>
        <time>2013-08-31T12:32:42Z</time>
      </trkpt>
      <trkpt lat="44.75942" lon="-0.33762">
        <ele>97</ele>
        <time>2013-08-31T12:32:59Z</time>
      </trkpt>
      <trkpt lat="44.75941" lon="-0.33762">
        <ele>97</ele>
        <time>2013-08-31T12:33:12Z</time>
      </trkpt>
      <trkpt lat="44.75941" lon="-0.33763">
        <ele>97</ele>
        <time>2013-08-31T12:33:19Z</time>
      </trkpt>
      <trkpt lat="44.75929" lon="-0.33765">
        <ele>97</ele>
        <time>2013-08-31T12:33:25Z</time>
      </trkpt>
      <trkpt lat="44.75926" lon="-0.33763">
        <ele>97</ele>
        <time>2013-08-31T12:33:27Z</time>
      </trkpt>
      <trkpt lat="44.75923" lon="-0.33761">
        <ele>97</ele>
        <time>2013-08-31T12:33:29Z</time>
      </trkpt>
      <trkpt lat="44.75915" lon="-0.33761">
        <ele>96</ele>
        <time>2013-08-31T12:33:33Z</time>
      </trkpt>
      <trkpt lat="44.75898" lon="-0.33762">
        <ele>94</ele>
        <time>2013-08-31T12:33:42Z</time>
      </trkpt>
      <trkpt lat="44.75882" lon="-0.33769">
        <ele>92</ele>
        <time>2013-08-31T12:33:47Z</time>
      </trkpt>
      <trkpt lat="44.75856" lon="-0.33776">
        <ele>87</ele>
        <time>2013-08-31T12:33:52Z</time>
      </trkpt>
      <trkpt lat="44.75832" lon="-0.33781">
        <ele>82</ele>
        <time>2013-08-31T12:33:58Z</time>
      </trkpt>
      <trkpt lat="44.7583" lon="-0.33782">
        <ele>82</ele>
        <time>2013-08-31T12:33:59Z</time>
      </trkpt>
      <trkpt lat="44.75817" lon="-0.33788">
        <ele>79</ele>
        <time>2013-08-31T12:34:05Z</time>
      </trkpt>
      <trkpt lat="44.75804" lon="-0.33798">
        <ele>78</ele>
        <time>2013-08-31T12:34:13Z</time>
      </trkpt>
      <trkpt lat="44.75787" lon="-0.33802">
        <ele>76</ele>
        <time>2013-08-31T12:34:18Z</time>
      </trkpt>
      <trkpt lat="44.75775" lon="-0.33807">
        <ele>75</ele>
        <time>2013-08-31T12:34:22Z</time>
      </trkpt>
      <trkpt lat="44.7577" lon="-0.33811">
        <ele>75</ele>
        <time>2013-08-31T12:34:24Z</time>
      </trkpt>
      <trkpt lat="44.75771" lon="-0.33842">
        <ele>74</ele>
        <time>2013-08-31T12:34:29Z</time>
      </trkpt>
      <trkpt lat="44.75771" lon="-0.33873">
        <ele>72</ele>
        <time>2013-08-31T12:34:34Z</time>
      </trkpt>
      <trkpt lat="44.7577" lon="-0.33886">
        <ele>72</ele>
        <time>2013-08-31T12:34:38Z</time>
      </trkpt>
      <trkpt lat="44.75765" lon="-0.33909">
        <ele>72</ele>
        <time>2013-08-31T12:34:43Z</time>
      </trkpt>
      <trkpt lat="44.75758" lon="-0.33931">
        <ele>72</ele>
        <time>2013-08-31T12:34:49Z</time>
      </trkpt>
      <trkpt lat="44.7576" lon="-0.3397">
        <ele>71</ele>
        <time>2013-08-31T12:34:58Z</time>
      </trkpt>
      <trkpt lat="44.75757" lon="-0.33992">
        <ele>70</ele>
        <time>2013-08-31T12:35:03Z</time>
      </trkpt>
      <trkpt lat="44.75754" lon="-0.34003">
        <ele>70</ele>
        <time>2013-08-31T12:35:06Z</time>
      </trkpt>
      <trkpt lat="44.75753" lon="-0.34019">
        <ele>69</ele>
        <time>2013-08-31T12:35:10Z</time>
      </trkpt>
      <trkpt lat="44.75748" lon="-0.34047">
        <ele>68</ele>
        <time>2013-08-31T12:35:19Z</time>
      </trkpt>
      <trkpt lat="44.75747" lon="-0.34052">
        <ele>68</ele>
        <time>2013-08-31T12:35:21Z</time>
      </trkpt>
      <trkpt lat="44.7575" lon="-0.34067">
        <ele>68</ele>
        <time>2013-08-31T12:35:26Z</time>
      </trkpt>
      <trkpt lat="44.75763" lon="-0.341">
        <ele>67</ele>
        <time>2013-08-31T12:35:31Z</time>
      </trkpt>
      <trkpt lat="44.75765" lon="-0.34117">
        <ele>66</ele>
        <time>2013-08-31T12:35:34Z</time>
      </trkpt>
      <trkpt lat="44.75753" lon="-0.34135">
        <ele>65</ele>
        <time>2013-08-31T12:35:41Z</time>
      </trkpt>
      <trkpt lat="44.75751" lon="-0.34136">
        <ele>65</ele>
        <time>2013-08-31T12:35:42Z</time>
      </trkpt>
      <trkpt lat="44.75744" lon="-0.34145">
        <ele>65</ele>
        <time>2013-08-31T12:35:49Z</time>
      </trkpt>
      <trkpt lat="44.75756" lon="-0.34179">
        <ele>64</ele>
        <time>2013-08-31T12:35:56Z</time>
      </trkpt>
      <trkpt lat="44.75768" lon="-0.34212">
        <ele>63</ele>
        <time>2013-08-31T12:36:02Z</time>
      </trkpt>
      <trkpt lat="44.75773" lon="-0.34233">
        <ele>63</ele>
        <time>2013-08-31T12:36:09Z</time>
      </trkpt>
      <trkpt lat="44.7578" lon="-0.34266">
        <ele>64</ele>
        <time>2013-08-31T12:36:17Z</time>
      </trkpt>
      <trkpt lat="44.75772" lon="-0.34294">
        <ele>63</ele>
        <time>2013-08-31T12:36:24Z</time>
      </trkpt>
      <trkpt lat="44.75771" lon="-0.34296">
        <ele>63</ele>
        <time>2013-08-31T12:36:25Z</time>
      </trkpt>
      <trkpt lat="44.75757" lon="-0.34309">
        <ele>62</ele>
        <time>2013-08-31T12:36:33Z</time>
      </trkpt>
      <trkpt lat="44.75747" lon="-0.34328">
        <ele>63</ele>
        <time>2013-08-31T12:36:40Z</time>
      </trkpt>
      <trkpt lat="44.75745" lon="-0.34328">
        <ele>64</ele>
        <time>2013-08-31T12:36:41Z</time>
      </trkpt>
      <trkpt lat="44.75744" lon="-0.34365">
        <ele>63</ele>
        <time>2013-08-31T12:36:49Z</time>
      </trkpt>
      <trkpt lat="44.75729" lon="-0.3438">
        <ele>64</ele>
        <time>2013-08-31T12:36:55Z</time>
      </trkpt>
      <trkpt lat="44.75723" lon="-0.34389">
        <ele>64</ele>
        <time>2013-08-31T12:36:59Z</time>
      </trkpt>
      <trkpt lat="44.75725" lon="-0.34413">
        <ele>63</ele>
        <time>2013-08-31T12:37:05Z</time>
      </trkpt>
      <trkpt lat="44.75726" lon="-0.34416">
        <ele>63</ele>
        <time>2013-08-31T12:37:06Z</time>
      </trkpt>
      <trkpt lat="44.7574" lon="-0.34448">
        <ele>61</ele>
        <time>2013-08-31T12:37:10Z</time>
      </trkpt>
      <trkpt lat="44.758" lon="-0.34583">
        <ele>60</ele>
        <time>2013-08-31T12:37:15Z</time>
      </trkpt>
      <trkpt lat="44.75799" lon="-0.34587">
        <ele>60</ele>
        <time>2013-08-31T12:37:21Z</time>
      </trkpt>
      <trkpt lat="44.75797" lon="-0.34588">
        <ele>60</ele>
        <time>2013-08-31T12:37:32Z</time>
      </trkpt>
      <trkpt lat="44.75792" lon="-0.34588">
        <ele>60</ele>
        <time>2013-08-31T12:37:43Z</time>
      </trkpt>
      <trkpt lat="44.75791" lon="-0.34589">
        <ele>60</ele>
        <time>2013-08-31T12:37:57Z</time>
      </trkpt>
      <trkpt lat="44.75791" lon="-0.34592">
        <ele>61</ele>
        <time>2013-08-31T12:38:07Z</time>
      </trkpt>
      <trkpt lat="44.7579" lon="-0.34596">
        <ele>61</ele>
        <time>2013-08-31T12:38:14Z</time>
      </trkpt>
      <trkpt lat="44.7579" lon="-0.34598">
        <ele>61</ele>
        <time>2013-08-31T12:38:21Z</time>
      </trkpt>
      <trkpt lat="44.75789" lon="-0.346">
        <ele>61</ele>
        <time>2013-08-31T12:38:27Z</time>
      </trkpt>
      <trkpt lat="44.75788" lon="-0.34597">
        <ele>61</ele>
        <time>2013-08-31T12:38:40Z</time>
      </trkpt>
      <trkpt lat="44.75788" lon="-0.34595">
        <ele>61</ele>
        <time>2013-08-31T12:38:57Z</time>
      </trkpt>
      <trkpt lat="44.75787" lon="-0.34596">
        <ele>61</ele>
        <time>2013-08-31T12:39:01Z</time>
      </trkpt>
      <trkpt lat="44.75786" lon="-0.34603">
        <ele>61</ele>
        <time>2013-08-31T12:39:06Z</time>
      </trkpt>
      <trkpt lat="44.75786" lon="-0.34614">
        <ele>61</ele>
        <time>2013-08-31T12:39:12Z</time>
      </trkpt>
      <trkpt lat="44.75789" lon="-0.34625">
        <ele>61</ele>
        <time>2013-08-31T12:39:16Z</time>
      </trkpt>
      <trkpt lat="44.75799" lon="-0.34654">
        <ele>60</ele>
        <time>2013-08-31T12:39:24Z</time>
      </trkpt>
      <trkpt lat="44.75802" lon="-0.34664">
        <ele>60</ele>
        <time>2013-08-31T12:39:27Z</time>
      </trkpt>
      <trkpt lat="44.75811" lon="-0.34689">
        <ele>60</ele>
        <time>2013-08-31T12:39:34Z</time>
      </trkpt>
      <trkpt lat="44.75814" lon="-0.34696">
        <ele>60</ele>
        <time>2013-08-31T12:39:39Z</time>
      </trkpt>
      <trkpt lat="44.75817" lon="-0.34701">
        <ele>60</ele>
        <time>2013-08-31T12:39:50Z</time>
      </trkpt>
      <trkpt lat="44.7582" lon="-0.34705">
        <ele>59</ele>
        <time>2013-08-31T12:39:59Z</time>
      </trkpt>
      <trkpt lat="44.75821" lon="-0.34706">
        <ele>59</ele>
        <time>2013-08-31T12:40:00Z</time>
      </trkpt>
      <trkpt lat="44.75823" lon="-0.34706">
        <ele>59</ele>
        <time>2013-08-31T12:40:06Z</time>
      </trkpt>
      <trkpt lat="44.75822" lon="-0.34712">
        <ele>60</ele>
        <time>2013-08-31T12:40:13Z</time>
      </trkpt>
      <trkpt lat="44.75821" lon="-0.34714">
        <ele>60</ele>
        <time>2013-08-31T12:40:16Z</time>
      </trkpt>
      <trkpt lat="44.75835" lon="-0.3474">
        <ele>59</ele>
        <time>2013-08-31T12:40:24Z</time>
      </trkpt>
      <trkpt lat="44.7584" lon="-0.34752">
        <ele>59</ele>
        <time>2013-08-31T12:40:29Z</time>
      </trkpt>
      <trkpt lat="44.7584" lon="-0.34784">
        <ele>61</ele>
        <time>2013-08-31T12:40:36Z</time>
      </trkpt>
      <trkpt lat="44.7584" lon="-0.34807">
        <ele>62</ele>
        <time>2013-08-31T12:40:40Z</time>
      </trkpt>
      <trkpt lat="44.75837" lon="-0.34861">
        <ele>61</ele>
        <time>2013-08-31T12:40:49Z</time>
      </trkpt>
      <trkpt lat="44.75828" lon="-0.34892">
        <ele>58</ele>
        <time>2013-08-31T12:40:57Z</time>
      </trkpt>
      <trkpt lat="44.75819" lon="-0.34928">
        <ele>57</ele>
        <time>2013-08-31T12:41:04Z</time>
      </trkpt>
      <trkpt lat="44.75816" lon="-0.34961">
        <ele>56</ele>
        <time>2013-08-31T12:41:11Z</time>
      </trkpt>
      <trkpt lat="44.7582" lon="-0.34992">
        <ele>56</ele>
        <time>2013-08-31T12:41:18Z</time>
      </trkpt>
      <trkpt lat="44.75818" lon="-0.35026">
        <ele>57</ele>
        <time>2013-08-31T12:41:26Z</time>
      </trkpt>
      <trkpt lat="44.7582" lon="-0.35061">
        <ele>56</ele>
        <time>2013-08-31T12:41:34Z</time>
      </trkpt>
      <trkpt lat="44.75823" lon="-0.35085">
        <ele>55</ele>
        <time>2013-08-31T12:41:40Z</time>
      </trkpt>
      <trkpt lat="44.7584" lon="-0.35113">
        <ele>53</ele>
        <time>2013-08-31T12:41:45Z</time>
      </trkpt>
      <trkpt lat="44.75842" lon="-0.35118">
        <ele>53</ele>
        <time>2013-08-31T12:41:46Z</time>
      </trkpt>
      <trkpt lat="44.75845" lon="-0.35125">
        <ele>53</ele>
        <time>2013-08-31T12:41:47Z</time>
      </trkpt>
      <trkpt lat="44.75847" lon="-0.3513">
        <ele>52</ele>
        <time>2013-08-31T12:41:48Z</time>
      </trkpt>
      <trkpt lat="44.7585" lon="-0.35134">
        <ele>52</ele>
        <time>2013-08-31T12:41:49Z</time>
      </trkpt>
      <trkpt lat="44.75852" lon="-0.35137">
        <ele>52</ele>
        <time>2013-08-31T12:41:50Z</time>
      </trkpt>
      <trkpt lat="44.75855" lon="-0.35139">
        <ele>52</ele>
        <time>2013-08-31T12:41:51Z</time>
      </trkpt>
      <trkpt lat="44.75858" lon="-0.35139">
        <ele>52</ele>
        <time>2013-08-31T12:41:52Z</time>
      </trkpt>
      <trkpt lat="44.7586" lon="-0.35139">
        <ele>52</ele>
        <time>2013-08-31T12:41:53Z</time>
      </trkpt>
      <trkpt lat="44.75863" lon="-0.3514">
        <ele>52</ele>
        <time>2013-08-31T12:41:54Z</time>
      </trkpt>
      <trkpt lat="44.75883" lon="-0.35149">
        <ele>52</ele>
        <time>2013-08-31T12:42:01Z</time>
      </trkpt>
      <trkpt lat="44.75898" lon="-0.35158">
        <ele>52</ele>
        <time>2013-08-31T12:42:09Z</time>
      </trkpt>
      <trkpt lat="44.75904" lon="-0.35155">
        <ele>53</ele>
        <time>2013-08-31T12:42:16Z</time>
      </trkpt>
      <trkpt lat="44.75908" lon="-0.35159">
        <ele>53</ele>
        <time>2013-08-31T12:42:23Z</time>
      </trkpt>
      <trkpt lat="44.7591" lon="-0.35157">
        <ele>53</ele>
        <time>2013-08-31T12:42:31Z</time>
      </trkpt>
      <trkpt lat="44.75911" lon="-0.35154">
        <ele>53</ele>
        <time>2013-08-31T12:42:38Z</time>
      </trkpt>
      <trkpt lat="44.7591" lon="-0.35148">
        <ele>53</ele>
        <time>2013-08-31T12:42:46Z</time>
      </trkpt>
      <trkpt lat="44.7591" lon="-0.35143">
        <ele>53</ele>
        <time>2013-08-31T12:42:53Z</time>
      </trkpt>
      <trkpt lat="44.75912" lon="-0.35135">
        <ele>53</ele>
        <time>2013-08-31T12:42:56Z</time>
      </trkpt>
      <trkpt lat="44.75912" lon="-0.35117">
        <ele>53</ele>
        <time>2013-08-31T12:43:03Z</time>
      </trkpt>
      <trkpt lat="44.75915" lon="-0.35097">
        <ele>53</ele>
        <time>2013-08-31T12:43:09Z</time>
      </trkpt>
      <trkpt lat="44.75917" lon="-0.35082">
        <ele>53</ele>
        <time>2013-08-31T12:43:16Z</time>
      </trkpt>
      <trkpt lat="44.75919" lon="-0.35079">
        <ele>53</ele>
        <time>2013-08-31T12:43:24Z</time>
      </trkpt>
      <trkpt lat="44.75921" lon="-0.35074">
        <ele>53</ele>
        <time>2013-08-31T12:43:31Z</time>
      </trkpt>
      <trkpt lat="44.75922" lon="-0.35065">
        <ele>54</ele>
        <time>2013-08-31T12:43:37Z</time>
      </trkpt>
      <trkpt lat="44.75926" lon="-0.35052">
        <ele>55</ele>
        <time>2013-08-31T12:43:43Z</time>
      </trkpt>
      <trkpt lat="44.75927" lon="-0.35032">
        <ele>55</ele>
        <time>2013-08-31T12:43:50Z</time>
      </trkpt>
      <trkpt lat="44.75931" lon="-0.35009">
        <ele>57</ele>
        <time>2013-08-31T12:43:55Z</time>
      </trkpt>
      <trkpt lat="44.75934" lon="-0.34993">
        <ele>58</ele>
        <time>2013-08-31T12:44:00Z</time>
      </trkpt>
      <trkpt lat="44.75938" lon="-0.34976">
        <ele>59</ele>
        <time>2013-08-31T12:44:07Z</time>
      </trkpt>
      <trkpt lat="44.75948" lon="-0.3494">
        <ele>60</ele>
        <time>2013-08-31T12:44:17Z</time>
      </trkpt>
      <trkpt lat="44.75949" lon="-0.34928">
        <ele>60</ele>
        <time>2013-08-31T12:44:22Z</time>
      </trkpt>
      <trkpt lat="44.75949" lon="-0.34925">
        <ele>60</ele>
        <time>2013-08-31T12:44:31Z</time>
      </trkpt>
      <trkpt lat="44.7595" lon="-0.34915">
        <ele>61</ele>
        <time>2013-08-31T12:44:36Z</time>
      </trkpt>
      <trkpt lat="44.7595" lon="-0.34896">
        <ele>60</ele>
        <time>2013-08-31T12:44:41Z</time>
      </trkpt>
      <trkpt lat="44.75952" lon="-0.34871">
        <ele>60</ele>
        <time>2013-08-31T12:44:48Z</time>
      </trkpt>
      <trkpt lat="44.75956" lon="-0.3484">
        <ele>59</ele>
        <time>2013-08-31T12:44:56Z</time>
      </trkpt>
      <trkpt lat="44.75964" lon="-0.34823">
        <ele>59</ele>
        <time>2013-08-31T12:45:02Z</time>
      </trkpt>
      <trkpt lat="44.75974" lon="-0.34806">
        <ele>59</ele>
        <time>2013-08-31T12:45:08Z</time>
      </trkpt>
      <trkpt lat="44.75985" lon="-0.34791">
        <ele>59</ele>
        <time>2013-08-31T12:45:14Z</time>
      </trkpt>
      <trkpt lat="44.75993" lon="-0.34778">
        <ele>59</ele>
        <time>2013-08-31T12:45:21Z</time>
      </trkpt>
      <trkpt lat="44.75996" lon="-0.3477">
        <ele>60</ele>
        <time>2013-08-31T12:45:27Z</time>
      </trkpt>
      <trkpt lat="44.75997" lon="-0.34768">
        <ele>60</ele>
        <time>2013-08-31T12:45:34Z</time>
      </trkpt>
      <trkpt lat="44.76009" lon="-0.34756">
        <ele>61</ele>
        <time>2013-08-31T12:45:42Z</time>
      </trkpt>
      <trkpt lat="44.7602" lon="-0.34745">
        <ele>61</ele>
        <time>2013-08-31T12:45:48Z</time>
      </trkpt>
      <trkpt lat="44.76024" lon="-0.34739">
        <ele>61</ele>
        <time>2013-08-31T12:45:55Z</time>
      </trkpt>
      <trkpt lat="44.76026" lon="-0.34734">
        <ele>60</ele>
        <time>2013-08-31T12:46:02Z</time>
      </trkpt>
      <trkpt lat="44.76031" lon="-0.34727">
        <ele>60</ele>
        <time>2013-08-31T12:46:10Z</time>
      </trkpt>
      <trkpt lat="44.76035" lon="-0.3472">
        <ele>60</ele>
        <time>2013-08-31T12:46:18Z</time>
      </trkpt>
      <trkpt lat="44.76036" lon="-0.34716">
        <ele>59</ele>
        <time>2013-08-31T12:46:29Z</time>
      </trkpt>
      <trkpt lat="44.76038" lon="-0.34713">
        <ele>60</ele>
        <time>2013-08-31T12:46:43Z</time>
      </trkpt>
      <trkpt lat="44.76045" lon="-0.3471">
        <ele>60</ele>
        <time>2013-08-31T12:46:50Z</time>
      </trkpt>
      <trkpt lat="44.76047" lon="-0.34708">
        <ele>60</ele>
        <time>2013-08-31T12:46:58Z</time>
      </trkpt>
      <trkpt lat="44.7605" lon="-0.3471">
        <ele>60</ele>
        <time>2013-08-31T12:47:07Z</time>
      </trkpt>
      <trkpt lat="44.76059" lon="-0.34712">
        <ele>60</ele>
        <time>2013-08-31T12:47:14Z</time>
      </trkpt>
      <trkpt lat="44.76059" lon="-0.34713">
        <ele>60</ele>
        <time>2013-08-31T12:47:15Z</time>
      </trkpt>
      <trkpt lat="44.7607" lon="-0.34718">
        <ele>60</ele>
        <time>2013-08-31T12:47:24Z</time>
      </trkpt>
      <trkpt lat="44.76077" lon="-0.34721">
        <ele>60</ele>
        <time>2013-08-31T12:47:34Z</time>
      </trkpt>
      <trkpt lat="44.76085" lon="-0.34721">
        <ele>61</ele>
        <time>2013-08-31T12:47:50Z</time>
      </trkpt>
      <trkpt lat="44.76088" lon="-0.3472">
        <ele>61</ele>
        <time>2013-08-31T12:48:01Z</time>
      </trkpt>
      <trkpt lat="44.76094" lon="-0.34716">
        <ele>61</ele>
        <time>2013-08-31T12:48:13Z</time>
      </trkpt>
      <trkpt lat="44.76094" lon="-0.34717">
        <ele>61</ele>
        <time>2013-08-31T12:48:25Z</time>
      </trkpt>
      <trkpt lat="44.76102" lon="-0.34714">
        <ele>61</ele>
        <time>2013-08-31T12:48:33Z</time>
      </trkpt>
      <trkpt lat="44.76102" lon="-0.34725">
        <ele>61</ele>
        <time>2013-08-31T12:48:41Z</time>
      </trkpt>
      <trkpt lat="44.761" lon="-0.34728">
        <ele>62</ele>
        <time>2013-08-31T12:48:49Z</time>
      </trkpt>
      <trkpt lat="44.76098" lon="-0.34729">
        <ele>62</ele>
        <time>2013-08-31T12:49:02Z</time>
      </trkpt>
      <trkpt lat="44.76094" lon="-0.34733">
        <ele>62</ele>
        <time>2013-08-31T12:49:15Z</time>
      </trkpt>
      <trkpt lat="44.76094" lon="-0.34741">
        <ele>63</ele>
        <time>2013-08-31T12:49:23Z</time>
      </trkpt>
      <trkpt lat="44.76093" lon="-0.34748">
        <ele>64</ele>
        <time>2013-08-31T12:49:31Z</time>
      </trkpt>
      <trkpt lat="44.76092" lon="-0.34758">
        <ele>65</ele>
        <time>2013-08-31T12:49:40Z</time>
      </trkpt>
      <trkpt lat="44.76092" lon="-0.34765">
        <ele>66</ele>
        <time>2013-08-31T12:49:50Z</time>
      </trkpt>
      <trkpt lat="44.76093" lon="-0.34768">
        <ele>66</ele>
        <time>2013-08-31T12:50:00Z</time>
      </trkpt>
      <trkpt lat="44.76094" lon="-0.34771">
        <ele>66</ele>
        <time>2013-08-31T12:50:10Z</time>
      </trkpt>
      <trkpt lat="44.76093" lon="-0.34772">
        <ele>66</ele>
        <time>2013-08-31T12:50:17Z</time>
      </trkpt>
      <trkpt lat="44.76092" lon="-0.34777">
        <ele>67</ele>
        <time>2013-08-31T12:50:21Z</time>
      </trkpt>
      <trkpt lat="44.76086" lon="-0.34798">
        <ele>69</ele>
        <time>2013-08-31T12:50:29Z</time>
      </trkpt>
      <trkpt lat="44.76087" lon="-0.34817">
        <ele>71</ele>
        <time>2013-08-31T12:50:36Z</time>
      </trkpt>
      <trkpt lat="44.76087" lon="-0.34819">
        <ele>72</ele>
        <time>2013-08-31T12:50:37Z</time>
      </trkpt>
      <trkpt lat="44.7609" lon="-0.34829">
        <ele>73</ele>
        <time>2013-08-31T12:50:44Z</time>
      </trkpt>
      <trkpt lat="44.76096" lon="-0.34843">
        <ele>74</ele>
        <time>2013-08-31T12:50:51Z</time>
      </trkpt>
      <trkpt lat="44.76102" lon="-0.34852">
        <ele>75</ele>
        <time>2013-08-31T12:50:55Z</time>
      </trkpt>
      <trkpt lat="44.76115" lon="-0.34864">
        <ele>76</ele>
        <time>2013-08-31T12:51:01Z</time>
      </trkpt>
      <trkpt lat="44.76119" lon="-0.34868">
        <ele>77</ele>
        <time>2013-08-31T12:51:04Z</time>
      </trkpt>
      <trkpt lat="44.76133" lon="-0.34881">
        <ele>77</ele>
        <time>2013-08-31T12:51:13Z</time>
      </trkpt>
      <trkpt lat="44.76141" lon="-0.3491">
        <ele>80</ele>
        <time>2013-08-31T12:51:21Z</time>
      </trkpt>
      <trkpt lat="44.76142" lon="-0.3494">
        <ele>82</ele>
        <time>2013-08-31T12:51:28Z</time>
      </trkpt>
      <trkpt lat="44.76137" lon="-0.34958">
        <ele>84</ele>
        <time>2013-08-31T12:51:35Z</time>
      </trkpt>
      <trkpt lat="44.76135" lon="-0.34972">
        <ele>85</ele>
        <time>2013-08-31T12:51:40Z</time>
      </trkpt>
      <trkpt lat="44.76134" lon="-0.3498">
        <ele>85</ele>
        <time>2013-08-31T12:51:45Z</time>
      </trkpt>
      <trkpt lat="44.76145" lon="-0.34992">
        <ele>85</ele>
        <time>2013-08-31T12:51:55Z</time>
      </trkpt>
      <trkpt lat="44.76158" lon="-0.35008">
        <ele>86</ele>
        <time>2013-08-31T12:52:03Z</time>
      </trkpt>
      <trkpt lat="44.76178" lon="-0.35027">
        <ele>86</ele>
        <time>2013-08-31T12:52:12Z</time>
      </trkpt>
      <trkpt lat="44.7619" lon="-0.3504">
        <ele>86</ele>
        <time>2013-08-31T12:52:19Z</time>
      </trkpt>
      <trkpt lat="44.76207" lon="-0.35057">
        <ele>85</ele>
        <time>2013-08-31T12:52:25Z</time>
      </trkpt>
      <trkpt lat="44.76217" lon="-0.35069">
        <ele>85</ele>
        <time>2013-08-31T12:52:31Z</time>
      </trkpt>
      <trkpt lat="44.76236" lon="-0.35087">
        <ele>85</ele>
        <time>2013-08-31T12:52:38Z</time>
      </trkpt>
      <trkpt lat="44.76247" lon="-0.35101">
        <ele>85</ele>
        <time>2013-08-31T12:52:44Z</time>
      </trkpt>
      <trkpt lat="44.76255" lon="-0.35105">
        <ele>85</ele>
        <time>2013-08-31T12:52:48Z</time>
      </trkpt>
      <trkpt lat="44.76272" lon="-0.35118">
        <ele>84</ele>
        <time>2013-08-31T12:52:54Z</time>
      </trkpt>
      <trkpt lat="44.76279" lon="-0.35125">
        <ele>84</ele>
        <time>2013-08-31T12:52:59Z</time>
      </trkpt>
      <trkpt lat="44.76292" lon="-0.35133">
        <ele>85</ele>
        <time>2013-08-31T12:53:06Z</time>
      </trkpt>
      <trkpt lat="44.76307" lon="-0.35142">
        <ele>86</ele>
        <time>2013-08-31T12:53:13Z</time>
      </trkpt>
      <trkpt lat="44.76315" lon="-0.3515">
        <ele>87</ele>
        <time>2013-08-31T12:53:17Z</time>
      </trkpt>
      <trkpt lat="44.76319" lon="-0.35157">
        <ele>88</ele>
        <time>2013-08-31T12:53:21Z</time>
      </trkpt>
      <trkpt lat="44.76322" lon="-0.35189">
        <ele>90</ele>
        <time>2013-08-31T12:53:29Z</time>
      </trkpt>
      <trkpt lat="44.76322" lon="-0.35213">
        <ele>90</ele>
        <time>2013-08-31T12:53:36Z</time>
      </trkpt>
      <trkpt lat="44.76324" lon="-0.35224">
        <ele>90</ele>
        <time>2013-08-31T12:53:43Z</time>
      </trkpt>
      <trkpt lat="44.76328" lon="-0.35227">
        <ele>90</ele>
        <time>2013-08-31T12:53:49Z</time>
      </trkpt>
      <trkpt lat="44.7633" lon="-0.35233">
        <ele>90</ele>
        <time>2013-08-31T12:53:59Z</time>
      </trkpt>
      <trkpt lat="44.76332" lon="-0.35232">
        <ele>90</ele>
        <time>2013-08-31T12:54:02Z</time>
      </trkpt>
      <trkpt lat="44.76343" lon="-0.35229">
        <ele>90</ele>
        <time>2013-08-31T12:54:09Z</time>
      </trkpt>
      <trkpt lat="44.76353" lon="-0.35226">
        <ele>89</ele>
        <time>2013-08-31T12:54:14Z</time>
      </trkpt>
      <trkpt lat="44.76374" lon="-0.35223">
        <ele>89</ele>
        <time>2013-08-31T12:54:23Z</time>
      </trkpt>
      <trkpt lat="44.7639" lon="-0.35219">
        <ele>89</ele>
        <time>2013-08-31T12:54:29Z</time>
      </trkpt>
      <trkpt lat="44.76411" lon="-0.35217">
        <ele>88</ele>
        <time>2013-08-31T12:54:36Z</time>
      </trkpt>
      <trkpt lat="44.76436" lon="-0.35212">
        <ele>89</ele>
        <time>2013-08-31T12:54:44Z</time>
      </trkpt>
      <trkpt lat="44.76463" lon="-0.35207">
        <ele>89</ele>
        <time>2013-08-31T12:54:53Z</time>
      </trkpt>
      <trkpt lat="44.7649" lon="-0.35206">
        <ele>90</ele>
        <time>2013-08-31T12:55:01Z</time>
      </trkpt>
      <trkpt lat="44.76511" lon="-0.35202">
        <ele>90</ele>
        <time>2013-08-31T12:55:08Z</time>
      </trkpt>
      <trkpt lat="44.76526" lon="-0.35202">
        <ele>91</ele>
        <time>2013-08-31T12:55:14Z</time>
      </trkpt>
      <trkpt lat="44.76551" lon="-0.35198">
        <ele>91</ele>
        <time>2013-08-31T12:55:22Z</time>
      </trkpt>
      <trkpt lat="44.76578" lon="-0.35192">
        <ele>92</ele>
        <time>2013-08-31T12:55:30Z</time>
      </trkpt>
      <trkpt lat="44.76606" lon="-0.35187">
        <ele>93</ele>
        <time>2013-08-31T12:55:39Z</time>
      </trkpt>
      <trkpt lat="44.76624" lon="-0.35181">
        <ele>93</ele>
        <time>2013-08-31T12:55:44Z</time>
      </trkpt>
      <trkpt lat="44.76652" lon="-0.35171">
        <ele>92</ele>
        <time>2013-08-31T12:55:51Z</time>
      </trkpt>
      <trkpt lat="44.76681" lon="-0.35164">
        <ele>91</ele>
        <time>2013-08-31T12:56:00Z</time>
      </trkpt>
      <trkpt lat="44.76709" lon="-0.35156">
        <ele>90</ele>
        <time>2013-08-31T12:56:08Z</time>
      </trkpt>
      <trkpt lat="44.76743" lon="-0.35148">
        <ele>90</ele>
        <time>2013-08-31T12:56:18Z</time>
      </trkpt>
      <trkpt lat="44.7677" lon="-0.35142">
        <ele>91</ele>
        <time>2013-08-31T12:56:25Z</time>
      </trkpt>
      <trkpt lat="44.76801" lon="-0.35137">
        <ele>91</ele>
        <time>2013-08-31T12:56:33Z</time>
      </trkpt>
      <trkpt lat="44.76838" lon="-0.3513">
        <ele>92</ele>
        <time>2013-08-31T12:56:43Z</time>
      </trkpt>
      <trkpt lat="44.7688" lon="-0.35128">
        <ele>93</ele>
        <time>2013-08-31T12:56:54Z</time>
      </trkpt>
      <trkpt lat="44.76914" lon="-0.35125">
        <ele>94</ele>
        <time>2013-08-31T12:57:03Z</time>
      </trkpt>
      <trkpt lat="44.7694" lon="-0.35125">
        <ele>95</ele>
        <time>2013-08-31T12:57:10Z</time>
      </trkpt>
      <trkpt lat="44.76975" lon="-0.35123">
        <ele>95</ele>
        <time>2013-08-31T12:57:19Z</time>
      </trkpt>
      <trkpt lat="44.77009" lon="-0.35122">
        <ele>96</ele>
        <time>2013-08-31T12:57:28Z</time>
      </trkpt>
      <trkpt lat="44.77034" lon="-0.35122">
        <ele>97</ele>
        <time>2013-08-31T12:57:35Z</time>
      </trkpt>
      <trkpt lat="44.77062" lon="-0.35121">
        <ele>98</ele>
        <time>2013-08-31T12:57:43Z</time>
      </trkpt>
      <trkpt lat="44.77089" lon="-0.35119">
        <ele>99</ele>
        <time>2013-08-31T12:57:52Z</time>
      </trkpt>
      <trkpt lat="44.7711" lon="-0.35116">
        <ele>100</ele>
        <time>2013-08-31T12:57:59Z</time>
      </trkpt>
      <trkpt lat="44.77125" lon="-0.35118">
        <ele>101</ele>
        <time>2013-08-31T12:58:05Z</time>
      </trkpt>
      <trkpt lat="44.77143" lon="-0.35123">
        <ele>102</ele>
        <time>2013-08-31T12:58:12Z</time>
      </trkpt>
      <trkpt lat="44.77146" lon="-0.35125">
        <ele>102</ele>
        <time>2013-08-31T12:58:18Z</time>
      </trkpt>
      <trkpt lat="44.77146" lon="-0.35125">
        <ele>102</ele>
        <time>2013-08-31T12:58:29Z</time>
      </trkpt>
      <trkpt lat="44.77148" lon="-0.35125">
        <ele>102</ele>
        <time>2013-08-31T12:58:36Z</time>
      </trkpt>
      <trkpt lat="44.77149" lon="-0.35126">
        <ele>102</ele>
        <time>2013-08-31T12:58:38Z</time>
      </trkpt>
      <trkpt lat="44.7715" lon="-0.35127">
        <ele>102</ele>
        <time>2013-08-31T12:58:39Z</time>
      </trkpt>
      <trkpt lat="44.77151" lon="-0.35129">
        <ele>102</ele>
        <time>2013-08-31T12:58:40Z</time>
      </trkpt>
      <trkpt lat="44.77153" lon="-0.35133">
        <ele>102</ele>
        <time>2013-08-31T12:58:41Z</time>
      </trkpt>
      <trkpt lat="44.77154" lon="-0.35137">
        <ele>102</ele>
        <time>2013-08-31T12:58:42Z</time>
      </trkpt>
      <trkpt lat="44.77156" lon="-0.35141">
        <ele>102</ele>
        <time>2013-08-31T12:58:43Z</time>
      </trkpt>
      <trkpt lat="44.77158" lon="-0.35145">
        <ele>102</ele>
        <time>2013-08-31T12:58:44Z</time>
      </trkpt>
      <trkpt lat="44.77161" lon="-0.3515">
        <ele>102</ele>
        <time>2013-08-31T12:58:45Z</time>
      </trkpt>
      <trkpt lat="44.7717" lon="-0.35173">
        <ele>102</ele>
        <time>2013-08-31T12:58:50Z</time>
      </trkpt>
      <trkpt lat="44.77182" lon="-0.35209">
        <ele>103</ele>
        <time>2013-08-31T12:58:57Z</time>
      </trkpt>
      <trkpt lat="44.77194" lon="-0.35258">
        <ele>103</ele>
        <time>2013-08-31T12:59:06Z</time>
      </trkpt>
      <trkpt lat="44.77201" lon="-0.35305">
        <ele>103</ele>
        <time>2013-08-31T12:59:15Z</time>
      </trkpt>
      <trkpt lat="44.772" lon="-0.35346">
        <ele>103</ele>
        <time>2013-08-31T12:59:22Z</time>
      </trkpt>
      <trkpt lat="44.77198" lon="-0.35377">
        <ele>103</ele>
        <time>2013-08-31T12:59:27Z</time>
      </trkpt>
      <trkpt lat="44.77196" lon="-0.35403">
        <ele>103</ele>
        <time>2013-08-31T12:59:31Z</time>
      </trkpt>
      <trkpt lat="44.77196" lon="-0.35409">
        <ele>103</ele>
        <time>2013-08-31T12:59:32Z</time>
      </trkpt>
      <trkpt lat="44.77195" lon="-0.3542">
        <ele>103</ele>
        <time>2013-08-31T12:59:34Z</time>
      </trkpt>
      <trkpt lat="44.77196" lon="-0.35456">
        <ele>103</ele>
        <time>2013-08-31T12:59:40Z</time>
      </trkpt>
      <trkpt lat="44.77205" lon="-0.3553">
        <ele>101</ele>
        <time>2013-08-31T12:59:52Z</time>
      </trkpt>
      <trkpt lat="44.77209" lon="-0.3559">
        <ele>100</ele>
        <time>2013-08-31T13:00:01Z</time>
      </trkpt>
      <trkpt lat="44.7721" lon="-0.35652">
        <ele>100</ele>
        <time>2013-08-31T13:00:11Z</time>
      </trkpt>
      <trkpt lat="44.77213" lon="-0.35714">
        <ele>100</ele>
        <time>2013-08-31T13:00:22Z</time>
      </trkpt>
      <trkpt lat="44.77215" lon="-0.35773">
        <ele>100</ele>
        <time>2013-08-31T13:00:33Z</time>
      </trkpt>
      <trkpt lat="44.77217" lon="-0.35828">
        <ele>100</ele>
        <time>2013-08-31T13:00:43Z</time>
      </trkpt>
      <trkpt lat="44.77216" lon="-0.35851">
        <ele>100</ele>
        <time>2013-08-31T13:00:47Z</time>
      </trkpt>
      <trkpt lat="44.77212" lon="-0.35903">
        <ele>100</ele>
        <time>2013-08-31T13:00:55Z</time>
      </trkpt>
      <trkpt lat="44.77203" lon="-0.35951">
        <ele>100</ele>
        <time>2013-08-31T13:01:04Z</time>
      </trkpt>
      <trkpt lat="44.77192" lon="-0.36002">
        <ele>100</ele>
        <time>2013-08-31T13:01:13Z</time>
      </trkpt>
      <trkpt lat="44.77184" lon="-0.36052">
        <ele>100</ele>
        <time>2013-08-31T13:01:22Z</time>
      </trkpt>
      <trkpt lat="44.7718" lon="-0.36113">
        <ele>100</ele>
        <time>2013-08-31T13:01:33Z</time>
      </trkpt>
      <trkpt lat="44.77173" lon="-0.36181">
        <ele>100</ele>
        <time>2013-08-31T13:01:45Z</time>
      </trkpt>
      <trkpt lat="44.77169" lon="-0.36204">
        <ele>100</ele>
        <time>2013-08-31T13:01:49Z</time>
      </trkpt>
      <trkpt lat="44.77166" lon="-0.36234">
        <ele>100</ele>
        <time>2013-08-31T13:01:54Z</time>
      </trkpt>
      <trkpt lat="44.77159" lon="-0.36291">
        <ele>100</ele>
        <time>2013-08-31T13:02:04Z</time>
      </trkpt>
      <trkpt lat="44.77152" lon="-0.36361">
        <ele>100</ele>
        <time>2013-08-31T13:02:16Z</time>
      </trkpt>
      <trkpt lat="44.77144" lon="-0.3641">
        <ele>99</ele>
        <time>2013-08-31T13:02:25Z</time>
      </trkpt>
      <trkpt lat="44.77138" lon="-0.36428">
        <ele>98</ele>
        <time>2013-08-31T13:02:29Z</time>
      </trkpt>
      <trkpt lat="44.77137" lon="-0.36434">
        <ele>98</ele>
        <time>2013-08-31T13:02:30Z</time>
      </trkpt>
      <trkpt lat="44.77137" lon="-0.3644">
        <ele>98</ele>
        <time>2013-08-31T13:02:31Z</time>
      </trkpt>
      <trkpt lat="44.77129" lon="-0.36493">
        <ele>97</ele>
        <time>2013-08-31T13:02:41Z</time>
      </trkpt>
      <trkpt lat="44.77122" lon="-0.36525">
        <ele>96</ele>
        <time>2013-08-31T13:02:47Z</time>
      </trkpt>
      <trkpt lat="44.7712" lon="-0.3653">
        <ele>96</ele>
        <time>2013-08-31T13:02:48Z</time>
      </trkpt>
      <trkpt lat="44.77117" lon="-0.36535">
        <ele>95</ele>
        <time>2013-08-31T13:02:49Z</time>
      </trkpt>
      <trkpt lat="44.77096" lon="-0.36563">
        <ele>95</ele>
        <time>2013-08-31T13:02:55Z</time>
      </trkpt>
      <trkpt lat="44.77093" lon="-0.36569">
        <ele>95</ele>
        <time>2013-08-31T13:02:56Z</time>
      </trkpt>
      <trkpt lat="44.77081" lon="-0.36599">
        <ele>94</ele>
        <time>2013-08-31T13:03:02Z</time>
      </trkpt>
      <trkpt lat="44.77067" lon="-0.3664">
        <ele>94</ele>
        <time>2013-08-31T13:03:10Z</time>
      </trkpt>
      <trkpt lat="44.77046" lon="-0.36684">
        <ele>95</ele>
        <time>2013-08-31T13:03:21Z</time>
      </trkpt>
      <trkpt lat="44.77038" lon="-0.36714">
        <ele>95</ele>
        <time>2013-08-31T13:03:28Z</time>
      </trkpt>
      <trkpt lat="44.77027" lon="-0.3673">
        <ele>96</ele>
        <time>2013-08-31T13:03:34Z</time>
      </trkpt>
      <trkpt lat="44.77021" lon="-0.36735">
        <ele>96</ele>
        <time>2013-08-31T13:03:40Z</time>
      </trkpt>
      <trkpt lat="44.77017" lon="-0.36739">
        <ele>96</ele>
        <time>2013-08-31T13:03:47Z</time>
      </trkpt>
      <trkpt lat="44.77017" lon="-0.3674">
        <ele>96</ele>
        <time>2013-08-31T13:03:53Z</time>
      </trkpt>
      <trkpt lat="44.77019" lon="-0.36743">
        <ele>96</ele>
        <time>2013-08-31T13:04:02Z</time>
      </trkpt>
      <trkpt lat="44.7702" lon="-0.36744">
        <ele>96</ele>
        <time>2013-08-31T13:04:08Z</time>
      </trkpt>
      <trkpt lat="44.77034" lon="-0.36754">
        <ele>95</ele>
        <time>2013-08-31T13:04:16Z</time>
      </trkpt>
      <trkpt lat="44.7705" lon="-0.36769">
        <ele>94</ele>
        <time>2013-08-31T13:04:23Z</time>
      </trkpt>
      <trkpt lat="44.77062" lon="-0.36783">
        <ele>93</ele>
        <time>2013-08-31T13:04:30Z</time>
      </trkpt>
      <trkpt lat="44.77084" lon="-0.36808">
        <ele>90</ele>
        <time>2013-08-31T13:04:37Z</time>
      </trkpt>
      <trkpt lat="44.77094" lon="-0.36834">
        <ele>89</ele>
        <time>2013-08-31T13:04:44Z</time>
      </trkpt>
      <trkpt lat="44.77108" lon="-0.36864">
        <ele>87</ele>
        <time>2013-08-31T13:04:51Z</time>
      </trkpt>
      <trkpt lat="44.77119" lon="-0.36899">
        <ele>86</ele>
        <time>2013-08-31T13:04:58Z</time>
      </trkpt>
      <trkpt lat="44.77135" lon="-0.36937">
        <ele>84</ele>
        <time>2013-08-31T13:05:03Z</time>
      </trkpt>
      <trkpt lat="44.7715" lon="-0.36972">
        <ele>82</ele>
        <time>2013-08-31T13:05:09Z</time>
      </trkpt>
      <trkpt lat="44.77162" lon="-0.37">
        <ele>80</ele>
        <time>2013-08-31T13:05:14Z</time>
      </trkpt>
      <trkpt lat="44.77179" lon="-0.37047">
        <ele>78</ele>
        <time>2013-08-31T13:05:20Z</time>
      </trkpt>
      <trkpt lat="44.77188" lon="-0.37062">
        <ele>78</ele>
        <time>2013-08-31T13:05:26Z</time>
      </trkpt>
      <trkpt lat="44.77201" lon="-0.3708">
        <ele>77</ele>
        <time>2013-08-31T13:05:31Z</time>
      </trkpt>
      <trkpt lat="44.77231" lon="-0.37114">
        <ele>75</ele>
        <time>2013-08-31T13:05:38Z</time>
      </trkpt>
      <trkpt lat="44.77247" lon="-0.37136">
        <ele>74</ele>
        <time>2013-08-31T13:05:43Z</time>
      </trkpt>
      <trkpt lat="44.77254" lon="-0.37142">
        <ele>74</ele>
        <time>2013-08-31T13:05:44Z</time>
      </trkpt>
      <trkpt lat="44.7726" lon="-0.37147">
        <ele>73</ele>
        <time>2013-08-31T13:05:45Z</time>
      </trkpt>
      <trkpt lat="44.77273" lon="-0.37158">
        <ele>72</ele>
        <time>2013-08-31T13:05:48Z</time>
      </trkpt>
      <trkpt lat="44.77277" lon="-0.37161">
        <ele>72</ele>
        <time>2013-08-31T13:05:49Z</time>
      </trkpt>
      <trkpt lat="44.7728" lon="-0.37164">
        <ele>72</ele>
        <time>2013-08-31T13:05:50Z</time>
      </trkpt>
      <trkpt lat="44.77284" lon="-0.37167">
        <ele>72</ele>
        <time>2013-08-31T13:05:51Z</time>
      </trkpt>
      <trkpt lat="44.77288" lon="-0.37169">
        <ele>72</ele>
        <time>2013-08-31T13:05:52Z</time>
      </trkpt>
      <trkpt lat="44.773" lon="-0.37183">
        <ele>71</ele>
        <time>2013-08-31T13:05:56Z</time>
      </trkpt>
      <trkpt lat="44.77313" lon="-0.37194">
        <ele>70</ele>
        <time>2013-08-31T13:06:02Z</time>
      </trkpt>
      <trkpt lat="44.77319" lon="-0.37195">
        <ele>70</ele>
        <time>2013-08-31T13:06:04Z</time>
      </trkpt>
      <trkpt lat="44.7733" lon="-0.37211">
        <ele>70</ele>
        <time>2013-08-31T13:06:12Z</time>
      </trkpt>
      <trkpt lat="44.77337" lon="-0.37224">
        <ele>69</ele>
        <time>2013-08-31T13:06:26Z</time>
      </trkpt>
      <trkpt lat="44.77337" lon="-0.3723">
        <ele>69</ele>
        <time>2013-08-31T13:06:43Z</time>
      </trkpt>
      <trkpt lat="44.77337" lon="-0.37233">
        <ele>69</ele>
        <time>2013-08-31T13:07:00Z</time>
      </trkpt>
      <trkpt lat="44.77341" lon="-0.37233">
        <ele>69</ele>
        <time>2013-08-31T13:07:11Z</time>
      </trkpt>
      <trkpt lat="44.77346" lon="-0.37233">
        <ele>69</ele>
        <time>2013-08-31T13:07:20Z</time>
      </trkpt>
      <trkpt lat="44.77346" lon="-0.37235">
        <ele>69</ele>
        <time>2013-08-31T13:07:21Z</time>
      </trkpt>
      <trkpt lat="44.77346" lon="-0.37237">
        <ele>68</ele>
        <time>2013-08-31T13:07:22Z</time>
      </trkpt>
      <trkpt lat="44.77346" lon="-0.37239">
        <ele>68</ele>
        <time>2013-08-31T13:07:23Z</time>
      </trkpt>
      <trkpt lat="44.77345" lon="-0.37241">
        <ele>68</ele>
        <time>2013-08-31T13:07:24Z</time>
      </trkpt>
      <trkpt lat="44.77345" lon="-0.37243">
        <ele>68</ele>
        <time>2013-08-31T13:07:25Z</time>
      </trkpt>
      <trkpt lat="44.77344" lon="-0.37246">
        <ele>68</ele>
        <time>2013-08-31T13:07:26Z</time>
      </trkpt>
      <trkpt lat="44.77345" lon="-0.37249">
        <ele>68</ele>
        <time>2013-08-31T13:07:27Z</time>
      </trkpt>
      <trkpt lat="44.77344" lon="-0.37252">
        <ele>68</ele>
        <time>2013-08-31T13:07:28Z</time>
      </trkpt>
      <trkpt lat="44.77344" lon="-0.37256">
        <ele>68</ele>
        <time>2013-08-31T13:07:29Z</time>
      </trkpt>
      <trkpt lat="44.77345" lon="-0.37275">
        <ele>68</ele>
        <time>2013-08-31T13:07:33Z</time>
      </trkpt>
      <trkpt lat="44.77345" lon="-0.37279">
        <ele>68</ele>
        <time>2013-08-31T13:07:34Z</time>
      </trkpt>
      <trkpt lat="44.77346" lon="-0.37283">
        <ele>68</ele>
        <time>2013-08-31T13:07:35Z</time>
      </trkpt>
      <trkpt lat="44.77346" lon="-0.37308">
        <ele>68</ele>
        <time>2013-08-31T13:07:43Z</time>
      </trkpt>
      <trkpt lat="44.7734" lon="-0.37328">
        <ele>68</ele>
        <time>2013-08-31T13:07:50Z</time>
      </trkpt>
      <trkpt lat="44.7734" lon="-0.37358">
        <ele>68</ele>
        <time>2013-08-31T13:07:58Z</time>
      </trkpt>
      <trkpt lat="44.77345" lon="-0.37383">
        <ele>68</ele>
        <time>2013-08-31T13:08:11Z</time>
      </trkpt>
      <trkpt lat="44.77349" lon="-0.37397">
        <ele>68</ele>
        <time>2013-08-31T13:08:27Z</time>
      </trkpt>
      <trkpt lat="44.77347" lon="-0.374">
        <ele>68</ele>
        <time>2013-08-31T13:08:40Z</time>
      </trkpt>
      <trkpt lat="44.77347" lon="-0.37404">
        <ele>68</ele>
        <time>2013-08-31T13:08:56Z</time>
      </trkpt>
      <trkpt lat="44.77344" lon="-0.37406">
        <ele>68</ele>
        <time>2013-08-31T13:09:10Z</time>
      </trkpt>
      <trkpt lat="44.77343" lon="-0.37408">
        <ele>68</ele>
        <time>2013-08-31T13:09:25Z</time>
      </trkpt>
      <trkpt lat="44.77339" lon="-0.37414">
        <ele>68</ele>
        <time>2013-08-31T13:09:33Z</time>
      </trkpt>
      <trkpt lat="44.77337" lon="-0.37431">
        <ele>68</ele>
        <time>2013-08-31T13:09:38Z</time>
      </trkpt>
      <trkpt lat="44.77335" lon="-0.37432">
        <ele>68</ele>
        <time>2013-08-31T13:09:39Z</time>
      </trkpt>
      <trkpt lat="44.77334" lon="-0.37433">
        <ele>68</ele>
        <time>2013-08-31T13:09:40Z</time>
      </trkpt>
      <trkpt lat="44.77328" lon="-0.3744">
        <ele>68</ele>
        <time>2013-08-31T13:09:44Z</time>
      </trkpt>
      <trkpt lat="44.77325" lon="-0.37442">
        <ele>68</ele>
        <time>2013-08-31T13:09:45Z</time>
      </trkpt>
      <trkpt lat="44.77323" lon="-0.37445">
        <ele>67</ele>
        <time>2013-08-31T13:09:46Z</time>
      </trkpt>
      <trkpt lat="44.77313" lon="-0.37475">
        <ele>67</ele>
        <time>2013-08-31T13:09:55Z</time>
      </trkpt>
      <trkpt lat="44.77313" lon="-0.37479">
        <ele>67</ele>
        <time>2013-08-31T13:09:56Z</time>
      </trkpt>
      <trkpt lat="44.77312" lon="-0.37481">
        <ele>67</ele>
        <time>2013-08-31T13:09:57Z</time>
      </trkpt>
      <trkpt lat="44.77311" lon="-0.37484">
        <ele>67</ele>
        <time>2013-08-31T13:09:58Z</time>
      </trkpt>
      <trkpt lat="44.7731" lon="-0.37487">
        <ele>67</ele>
        <time>2013-08-31T13:09:59Z</time>
      </trkpt>
      <trkpt lat="44.7731" lon="-0.3749">
        <ele>67</ele>
        <time>2013-08-31T13:10:00Z</time>
      </trkpt>
      <trkpt lat="44.77309" lon="-0.37495">
        <ele>67</ele>
        <time>2013-08-31T13:10:01Z</time>
      </trkpt>
      <trkpt lat="44.77309" lon="-0.37499">
        <ele>67</ele>
        <time>2013-08-31T13:10:02Z</time>
      </trkpt>
      <trkpt lat="44.77303" lon="-0.37528">
        <ele>67</ele>
        <time>2013-08-31T13:10:09Z</time>
      </trkpt>
      <trkpt lat="44.773" lon="-0.37568">
        <ele>67</ele>
        <time>2013-08-31T13:10:15Z</time>
      </trkpt>
      <trkpt lat="44.77304" lon="-0.37616">
        <ele>66</ele>
        <time>2013-08-31T13:10:22Z</time>
      </trkpt>
      <trkpt lat="44.77301" lon="-0.37643">
        <ele>66</ele>
        <time>2013-08-31T13:10:29Z</time>
      </trkpt>
      <trkpt lat="44.77299" lon="-0.37645">
        <ele>66</ele>
        <time>2013-08-31T13:10:30Z</time>
      </trkpt>
      <trkpt lat="44.77299" lon="-0.3765">
        <ele>66</ele>
        <time>2013-08-31T13:10:31Z</time>
      </trkpt>
      <trkpt lat="44.77287" lon="-0.37687">
        <ele>66</ele>
        <time>2013-08-31T13:10:38Z</time>
      </trkpt>
      <trkpt lat="44.77277" lon="-0.37727">
        <ele>66</ele>
        <time>2013-08-31T13:10:46Z</time>
      </trkpt>
      <trkpt lat="44.77273" lon="-0.37767">
        <ele>66</ele>
        <time>2013-08-31T13:10:53Z</time>
      </trkpt>
      <trkpt lat="44.77268" lon="-0.378">
        <ele>66</ele>
        <time>2013-08-31T13:10:59Z</time>
      </trkpt>
      <trkpt lat="44.77263" lon="-0.37832">
        <ele>66</ele>
        <time>2013-08-31T13:11:05Z</time>
      </trkpt>
      <trkpt lat="44.77262" lon="-0.37838">
        <ele>66</ele>
        <time>2013-08-31T13:11:06Z</time>
      </trkpt>
      <trkpt lat="44.77264" lon="-0.37845">
        <ele>66</ele>
        <time>2013-08-31T13:11:07Z</time>
      </trkpt>
      <trkpt lat="44.77264" lon="-0.37853">
        <ele>66</ele>
        <time>2013-08-31T13:11:08Z</time>
      </trkpt>
      <trkpt lat="44.77265" lon="-0.3786">
        <ele>66</ele>
        <time>2013-08-31T13:11:09Z</time>
      </trkpt>
      <trkpt lat="44.77265" lon="-0.37868">
        <ele>66</ele>
        <time>2013-08-31T13:11:10Z</time>
      </trkpt>
      <trkpt lat="44.77268" lon="-0.37919">
        <ele>66</ele>
        <time>2013-08-31T13:11:17Z</time>
      </trkpt>
      <trkpt lat="44.77264" lon="-0.37967">
        <ele>65</ele>
        <time>2013-08-31T13:11:23Z</time>
      </trkpt>
      <trkpt lat="44.77265" lon="-0.37987">
        <ele>65</ele>
        <time>2013-08-31T13:11:26Z</time>
      </trkpt>
      <trkpt lat="44.77266" lon="-0.37995">
        <ele>64</ele>
        <time>2013-08-31T13:11:27Z</time>
      </trkpt>
      <trkpt lat="44.77267" lon="-0.38002">
        <ele>64</ele>
        <time>2013-08-31T13:11:28Z</time>
      </trkpt>
      <trkpt lat="44.77267" lon="-0.38009">
        <ele>64</ele>
        <time>2013-08-31T13:11:29Z</time>
      </trkpt>
      <trkpt lat="44.77267" lon="-0.38014">
        <ele>64</ele>
        <time>2013-08-31T13:11:30Z</time>
      </trkpt>
      <trkpt lat="44.77267" lon="-0.38018">
        <ele>64</ele>
        <time>2013-08-31T13:11:31Z</time>
      </trkpt>
      <trkpt lat="44.77266" lon="-0.38022">
        <ele>64</ele>
        <time>2013-08-31T13:11:32Z</time>
      </trkpt>
      <trkpt lat="44.77266" lon="-0.38026">
        <ele>64</ele>
        <time>2013-08-31T13:11:33Z</time>
      </trkpt>
      <trkpt lat="44.77268" lon="-0.38051">
        <ele>63</ele>
        <time>2013-08-31T13:11:41Z</time>
      </trkpt>
      <trkpt lat="44.77266" lon="-0.38062">
        <ele>63</ele>
        <time>2013-08-31T13:11:43Z</time>
      </trkpt>
      <trkpt lat="44.77265" lon="-0.38077">
        <ele>63</ele>
        <time>2013-08-31T13:11:46Z</time>
      </trkpt>
      <trkpt lat="44.77269" lon="-0.38083">
        <ele>63</ele>
        <time>2013-08-31T13:11:48Z</time>
      </trkpt>
      <trkpt lat="44.77281" lon="-0.38107">
        <ele>62</ele>
        <time>2013-08-31T13:11:56Z</time>
      </trkpt>
      <trkpt lat="44.77284" lon="-0.38119">
        <ele>62</ele>
        <time>2013-08-31T13:12:00Z</time>
      </trkpt>
      <trkpt lat="44.7729" lon="-0.38131">
        <ele>62</ele>
        <time>2013-08-31T13:12:04Z</time>
      </trkpt>
      <trkpt lat="44.773" lon="-0.38141">
        <ele>62</ele>
        <time>2013-08-31T13:12:12Z</time>
      </trkpt>
      <trkpt lat="44.77301" lon="-0.38132">
        <ele>63</ele>
        <time>2013-08-31T13:12:16Z</time>
      </trkpt>
      <trkpt lat="44.77302" lon="-0.38113">
        <ele>63</ele>
        <time>2013-08-31T13:12:22Z</time>
      </trkpt>
      <trkpt lat="44.77302" lon="-0.38096">
        <ele>63</ele>
        <time>2013-08-31T13:12:27Z</time>
      </trkpt>
      <trkpt lat="44.77302" lon="-0.3807">
        <ele>63</ele>
        <time>2013-08-31T13:12:34Z</time>
      </trkpt>
      <trkpt lat="44.77302" lon="-0.38046">
        <ele>64</ele>
        <time>2013-08-31T13:12:39Z</time>
      </trkpt>
      <trkpt lat="44.77301" lon="-0.38015">
        <ele>65</ele>
        <time>2013-08-31T13:12:45Z</time>
      </trkpt>
      <trkpt lat="44.773" lon="-0.37993">
        <ele>66</ele>
        <time>2013-08-31T13:12:50Z</time>
      </trkpt>
      <trkpt lat="44.773" lon="-0.37973">
        <ele>66</ele>
        <time>2013-08-31T13:12:54Z</time>
      </trkpt>
      <trkpt lat="44.77299" lon="-0.37944">
        <ele>66</ele>
        <time>2013-08-31T13:12:59Z</time>
      </trkpt>
      <trkpt lat="44.77299" lon="-0.37936">
        <ele>66</ele>
        <time>2013-08-31T13:13:00Z</time>
      </trkpt>
      <trkpt lat="44.77298" lon="-0.3793">
        <ele>67</ele>
        <time>2013-08-31T13:13:01Z</time>
      </trkpt>
      <trkpt lat="44.77298" lon="-0.37924">
        <ele>67</ele>
        <time>2013-08-31T13:13:02Z</time>
      </trkpt>
      <trkpt lat="44.773" lon="-0.37919">
        <ele>67</ele>
        <time>2013-08-31T13:13:03Z</time>
      </trkpt>
      <trkpt lat="44.77299" lon="-0.37896">
        <ele>67</ele>
        <time>2013-08-31T13:13:08Z</time>
      </trkpt>
      <trkpt lat="44.77299" lon="-0.37863">
        <ele>68</ele>
        <time>2013-08-31T13:13:14Z</time>
      </trkpt>
      <trkpt lat="44.77298" lon="-0.37833">
        <ele>68</ele>
        <time>2013-08-31T13:13:19Z</time>
      </trkpt>
      <trkpt lat="44.773" lon="-0.37805">
        <ele>68</ele>
        <time>2013-08-31T13:13:24Z</time>
      </trkpt>
      <trkpt lat="44.773" lon="-0.37777">
        <ele>68</ele>
        <time>2013-08-31T13:13:29Z</time>
      </trkpt>
      <trkpt lat="44.77302" lon="-0.37751">
        <ele>67</ele>
        <time>2013-08-31T13:13:34Z</time>
      </trkpt>
      <trkpt lat="44.77301" lon="-0.37747">
        <ele>67</ele>
        <time>2013-08-31T13:13:35Z</time>
      </trkpt>
      <trkpt lat="44.77301" lon="-0.37743">
        <ele>67</ele>
        <time>2013-08-31T13:13:36Z</time>
      </trkpt>
      <trkpt lat="44.77301" lon="-0.3774">
        <ele>66</ele>
        <time>2013-08-31T13:13:37Z</time>
      </trkpt>
      <trkpt lat="44.77301" lon="-0.37737">
        <ele>66</ele>
        <time>2013-08-31T13:13:38Z</time>
      </trkpt>
      <trkpt lat="44.77307" lon="-0.37711">
        <ele>67</ele>
        <time>2013-08-31T13:13:44Z</time>
      </trkpt>
      <trkpt lat="44.77311" lon="-0.37682">
        <ele>67</ele>
        <time>2013-08-31T13:13:49Z</time>
      </trkpt>
      <trkpt lat="44.77321" lon="-0.37646">
        <ele>68</ele>
        <time>2013-08-31T13:13:56Z</time>
      </trkpt>
      <trkpt lat="44.77329" lon="-0.3762">
        <ele>68</ele>
        <time>2013-08-31T13:14:02Z</time>
      </trkpt>
      <trkpt lat="44.77336" lon="-0.37601">
        <ele>69</ele>
        <time>2013-08-31T13:14:07Z</time>
      </trkpt>
      <trkpt lat="44.77338" lon="-0.37599">
        <ele>69</ele>
        <time>2013-08-31T13:14:08Z</time>
      </trkpt>
      <trkpt lat="44.77347" lon="-0.37571">
        <ele>70</ele>
        <time>2013-08-31T13:14:14Z</time>
      </trkpt>
      <trkpt lat="44.77357" lon="-0.37544">
        <ele>71</ele>
        <time>2013-08-31T13:14:20Z</time>
      </trkpt>
      <trkpt lat="44.77368" lon="-0.37515">
        <ele>71</ele>
        <time>2013-08-31T13:14:26Z</time>
      </trkpt>
      <trkpt lat="44.7738" lon="-0.37477">
        <ele>71</ele>
        <time>2013-08-31T13:14:33Z</time>
      </trkpt>
      <trkpt lat="44.77393" lon="-0.37445">
        <ele>71</ele>
        <time>2013-08-31T13:14:39Z</time>
      </trkpt>
      <trkpt lat="44.77405" lon="-0.37415">
        <ele>71</ele>
        <time>2013-08-31T13:14:46Z</time>
      </trkpt>
      <trkpt lat="44.77416" lon="-0.37387">
        <ele>70</ele>
        <time>2013-08-31T13:14:53Z</time>
      </trkpt>
      <trkpt lat="44.77421" lon="-0.37374">
        <ele>70</ele>
        <time>2013-08-31T13:14:57Z</time>
      </trkpt>
      <trkpt lat="44.77422" lon="-0.37368">
        <ele>70</ele>
        <time>2013-08-31T13:14:58Z</time>
      </trkpt>
      <trkpt lat="44.7743" lon="-0.37348">
        <ele>70</ele>
        <time>2013-08-31T13:15:05Z</time>
      </trkpt>
      <trkpt lat="44.77437" lon="-0.37331">
        <ele>69</ele>
        <time>2013-08-31T13:15:10Z</time>
      </trkpt>
      <trkpt lat="44.77451" lon="-0.37337">
        <ele>70</ele>
        <time>2013-08-31T13:15:18Z</time>
      </trkpt>
      <trkpt lat="44.77462" lon="-0.37346">
        <ele>70</ele>
        <time>2013-08-31T13:15:24Z</time>
      </trkpt>
      <trkpt lat="44.77468" lon="-0.37358">
        <ele>71</ele>
        <time>2013-08-31T13:15:30Z</time>
      </trkpt>
      <trkpt lat="44.7747" lon="-0.3736">
        <ele>71</ele>
        <time>2013-08-31T13:15:31Z</time>
      </trkpt>
      <trkpt lat="44.77474" lon="-0.37365">
        <ele>71</ele>
        <time>2013-08-31T13:15:33Z</time>
      </trkpt>
      <trkpt lat="44.77488" lon="-0.37383">
        <ele>72</ele>
        <time>2013-08-31T13:15:40Z</time>
      </trkpt>
      <trkpt lat="44.77497" lon="-0.37399">
        <ele>73</ele>
        <time>2013-08-31T13:15:47Z</time>
      </trkpt>
      <trkpt lat="44.77508" lon="-0.37415">
        <ele>74</ele>
        <time>2013-08-31T13:15:54Z</time>
      </trkpt>
      <trkpt lat="44.77514" lon="-0.37429">
        <ele>75</ele>
        <time>2013-08-31T13:16:00Z</time>
      </trkpt>
      <trkpt lat="44.77521" lon="-0.37448">
        <ele>76</ele>
        <time>2013-08-31T13:16:07Z</time>
      </trkpt>
      <trkpt lat="44.77528" lon="-0.37465">
        <ele>77</ele>
        <time>2013-08-31T13:16:15Z</time>
      </trkpt>
      <trkpt lat="44.77536" lon="-0.37482">
        <ele>78</ele>
        <time>2013-08-31T13:16:21Z</time>
      </trkpt>
      <trkpt lat="44.77537" lon="-0.37488">
        <ele>79</ele>
        <time>2013-08-31T13:16:25Z</time>
      </trkpt>
      <trkpt lat="44.77537" lon="-0.37507">
        <ele>81</ele>
        <time>2013-08-31T13:16:32Z</time>
      </trkpt>
      <trkpt lat="44.7754" lon="-0.37519">
        <ele>81</ele>
        <time>2013-08-31T13:16:39Z</time>
      </trkpt>
      <trkpt lat="44.77545" lon="-0.37537">
        <ele>82</ele>
        <time>2013-08-31T13:16:46Z</time>
      </trkpt>
      <trkpt lat="44.7755" lon="-0.37567">
        <ele>84</ele>
        <time>2013-08-31T13:16:53Z</time>
      </trkpt>
      <trkpt lat="44.77556" lon="-0.37596">
        <ele>86</ele>
        <time>2013-08-31T13:17:01Z</time>
      </trkpt>
      <trkpt lat="44.77567" lon="-0.37618">
        <ele>87</ele>
        <time>2013-08-31T13:17:09Z</time>
      </trkpt>
      <trkpt lat="44.77579" lon="-0.37635">
        <ele>88</ele>
        <time>2013-08-31T13:17:16Z</time>
      </trkpt>
      <trkpt lat="44.77586" lon="-0.37656">
        <ele>88</ele>
        <time>2013-08-31T13:17:24Z</time>
      </trkpt>
      <trkpt lat="44.77592" lon="-0.37679">
        <ele>89</ele>
        <time>2013-08-31T13:17:31Z</time>
      </trkpt>
      <trkpt lat="44.77598" lon="-0.37703">
        <ele>89</ele>
        <time>2013-08-31T13:17:39Z</time>
      </trkpt>
      <trkpt lat="44.77601" lon="-0.37711">
        <ele>89</ele>
        <time>2013-08-31T13:17:42Z</time>
      </trkpt>
      <trkpt lat="44.77608" lon="-0.37731">
        <ele>89</ele>
        <time>2013-08-31T13:17:50Z</time>
      </trkpt>
      <trkpt lat="44.77625" lon="-0.37765">
        <ele>89</ele>
        <time>2013-08-31T13:17:59Z</time>
      </trkpt>
      <trkpt lat="44.77638" lon="-0.37792">
        <ele>89</ele>
        <time>2013-08-31T13:18:06Z</time>
      </trkpt>
      <trkpt lat="44.77654" lon="-0.37818">
        <ele>90</ele>
        <time>2013-08-31T13:18:14Z</time>
      </trkpt>
      <trkpt lat="44.77668" lon="-0.3785">
        <ele>90</ele>
        <time>2013-08-31T13:18:23Z</time>
      </trkpt>
      <trkpt lat="44.7768" lon="-0.3788">
        <ele>91</ele>
        <time>2013-08-31T13:18:31Z</time>
      </trkpt>
      <trkpt lat="44.77695" lon="-0.37915">
        <ele>92</ele>
        <time>2013-08-31T13:18:40Z</time>
      </trkpt>
      <trkpt lat="44.77712" lon="-0.37952">
        <ele>93</ele>
        <time>2013-08-31T13:18:49Z</time>
      </trkpt>
      <trkpt lat="44.77728" lon="-0.37983">
        <ele>93</ele>
        <time>2013-08-31T13:18:58Z</time>
      </trkpt>
      <trkpt lat="44.77747" lon="-0.38016">
        <ele>95</ele>
        <time>2013-08-31T13:19:08Z</time>
      </trkpt>
      <trkpt lat="44.77766" lon="-0.38046">
        <ele>95</ele>
        <time>2013-08-31T13:19:17Z</time>
      </trkpt>
      <trkpt lat="44.77779" lon="-0.3807">
        <ele>96</ele>
        <time>2013-08-31T13:19:24Z</time>
      </trkpt>
      <trkpt lat="44.77791" lon="-0.38098">
        <ele>96</ele>
        <time>2013-08-31T13:19:31Z</time>
      </trkpt>
      <trkpt lat="44.77805" lon="-0.38131">
        <ele>96</ele>
        <time>2013-08-31T13:19:39Z</time>
      </trkpt>
      <trkpt lat="44.77812" lon="-0.3815">
        <ele>96</ele>
        <time>2013-08-31T13:19:44Z</time>
      </trkpt>
      <trkpt lat="44.77819" lon="-0.38176">
        <ele>96</ele>
        <time>2013-08-31T13:19:51Z</time>
      </trkpt>
      <trkpt lat="44.77819" lon="-0.38179">
        <ele>96</ele>
        <time>2013-08-31T13:19:52Z</time>
      </trkpt>
      <trkpt lat="44.77819" lon="-0.38182">
        <ele>96</ele>
        <time>2013-08-31T13:19:53Z</time>
      </trkpt>
      <trkpt lat="44.7782" lon="-0.38186">
        <ele>96</ele>
        <time>2013-08-31T13:19:59Z</time>
      </trkpt>
      <trkpt lat="44.77821" lon="-0.3819">
        <ele>96</ele>
        <time>2013-08-31T13:20:14Z</time>
      </trkpt>
      <trkpt lat="44.77822" lon="-0.38193">
        <ele>96</ele>
        <time>2013-08-31T13:20:28Z</time>
      </trkpt>
      <trkpt lat="44.77823" lon="-0.38196">
        <ele>96</ele>
        <time>2013-08-31T13:20:30Z</time>
      </trkpt>
      <trkpt lat="44.77824" lon="-0.38197">
        <ele>96</ele>
        <time>2013-08-31T13:20:31Z</time>
      </trkpt>
      <trkpt lat="44.77824" lon="-0.382">
        <ele>96</ele>
        <time>2013-08-31T13:20:32Z</time>
      </trkpt>
      <trkpt lat="44.77824" lon="-0.38202">
        <ele>96</ele>
        <time>2013-08-31T13:20:33Z</time>
      </trkpt>
      <trkpt lat="44.77825" lon="-0.38204">
        <ele>96</ele>
        <time>2013-08-31T13:20:34Z</time>
      </trkpt>
      <trkpt lat="44.77828" lon="-0.3821">
        <ele>96</ele>
        <time>2013-08-31T13:20:38Z</time>
      </trkpt>
      <trkpt lat="44.77835" lon="-0.38227">
        <ele>96</ele>
        <time>2013-08-31T13:20:46Z</time>
      </trkpt>
      <trkpt lat="44.77841" lon="-0.38269">
        <ele>96</ele>
        <time>2013-08-31T13:20:55Z</time>
      </trkpt>
      <trkpt lat="44.77862" lon="-0.38289">
        <ele>95</ele>
        <time>2013-08-31T13:21:01Z</time>
      </trkpt>
      <trkpt lat="44.77874" lon="-0.38305">
        <ele>95</ele>
        <time>2013-08-31T13:21:06Z</time>
      </trkpt>
      <trkpt lat="44.7789" lon="-0.38326">
        <ele>95</ele>
        <time>2013-08-31T13:21:13Z</time>
      </trkpt>
      <trkpt lat="44.77914" lon="-0.38348">
        <ele>96</ele>
        <time>2013-08-31T13:21:21Z</time>
      </trkpt>
      <trkpt lat="44.7794" lon="-0.38356">
        <ele>96</ele>
        <time>2013-08-31T13:21:29Z</time>
      </trkpt>
      <trkpt lat="44.77959" lon="-0.38361">
        <ele>97</ele>
        <time>2013-08-31T13:21:36Z</time>
      </trkpt>
      <trkpt lat="44.77981" lon="-0.38376">
        <ele>97</ele>
        <time>2013-08-31T13:21:44Z</time>
      </trkpt>
      <trkpt lat="44.78" lon="-0.38397">
        <ele>97</ele>
        <time>2013-08-31T13:21:52Z</time>
      </trkpt>
      <trkpt lat="44.78019" lon="-0.38423">
        <ele>97</ele>
        <time>2013-08-31T13:22:00Z</time>
      </trkpt>
      <trkpt lat="44.78033" lon="-0.38447">
        <ele>97</ele>
        <time>2013-08-31T13:22:08Z</time>
      </trkpt>
      <trkpt lat="44.78052" lon="-0.38478">
        <ele>97</ele>
        <time>2013-08-31T13:22:18Z</time>
      </trkpt>
      <trkpt lat="44.78086" lon="-0.38514">
        <ele>98</ele>
        <time>2013-08-31T13:22:30Z</time>
      </trkpt>
      <trkpt lat="44.78118" lon="-0.38531">
        <ele>99</ele>
        <time>2013-08-31T13:22:40Z</time>
      </trkpt>
      <trkpt lat="44.78135" lon="-0.38533">
        <ele>99</ele>
        <time>2013-08-31T13:22:49Z</time>
      </trkpt>
      <trkpt lat="44.78136" lon="-0.38534">
        <ele>99</ele>
        <time>2013-08-31T13:22:57Z</time>
      </trkpt>
      <trkpt lat="44.78141" lon="-0.38533">
        <ele>99</ele>
        <time>2013-08-31T13:23:03Z</time>
      </trkpt>
      <trkpt lat="44.78143" lon="-0.38532">
        <ele>99</ele>
        <time>2013-08-31T13:23:04Z</time>
      </trkpt>
      <trkpt lat="44.78145" lon="-0.38532">
        <ele>99</ele>
        <time>2013-08-31T13:23:05Z</time>
      </trkpt>
      <trkpt lat="44.78147" lon="-0.38533">
        <ele>99</ele>
        <time>2013-08-31T13:23:06Z</time>
      </trkpt>
      <trkpt lat="44.78149" lon="-0.38533">
        <ele>99</ele>
        <time>2013-08-31T13:23:07Z</time>
      </trkpt>
      <trkpt lat="44.78151" lon="-0.38534">
        <ele>99</ele>
        <time>2013-08-31T13:23:08Z</time>
      </trkpt>
      <trkpt lat="44.78153" lon="-0.38535">
        <ele>99</ele>
        <time>2013-08-31T13:23:09Z</time>
      </trkpt>
      <trkpt lat="44.78156" lon="-0.38536">
        <ele>99</ele>
        <time>2013-08-31T13:23:10Z</time>
      </trkpt>
      <trkpt lat="44.78181" lon="-0.38546">
        <ele>100</ele>
        <time>2013-08-31T13:23:19Z</time>
      </trkpt>
      <trkpt lat="44.78208" lon="-0.38553">
        <ele>101</ele>
        <time>2013-08-31T13:23:28Z</time>
      </trkpt>
      <trkpt lat="44.78237" lon="-0.3856">
        <ele>102</ele>
        <time>2013-08-31T13:23:38Z</time>
      </trkpt>
      <trkpt lat="44.78263" lon="-0.38566">
        <ele>102</ele>
        <time>2013-08-31T13:23:47Z</time>
      </trkpt>
      <trkpt lat="44.78287" lon="-0.38567">
        <ele>103</ele>
        <time>2013-08-31T13:23:54Z</time>
      </trkpt>
      <trkpt lat="44.78317" lon="-0.38577">
        <ele>105</ele>
        <time>2013-08-31T13:24:03Z</time>
      </trkpt>
      <trkpt lat="44.78349" lon="-0.38592">
        <ele>106</ele>
        <time>2013-08-31T13:24:12Z</time>
      </trkpt>
      <trkpt lat="44.78382" lon="-0.38604">
        <ele>107</ele>
        <time>2013-08-31T13:24:21Z</time>
      </trkpt>
      <trkpt lat="44.78418" lon="-0.38609">
        <ele>107</ele>
        <time>2013-08-31T13:24:31Z</time>
      </trkpt>
      <trkpt lat="44.78457" lon="-0.38607">
        <ele>109</ele>
        <time>2013-08-31T13:24:42Z</time>
      </trkpt>
      <trkpt lat="44.78491" lon="-0.38603">
        <ele>110</ele>
        <time>2013-08-31T13:24:52Z</time>
      </trkpt>
      <trkpt lat="44.78515" lon="-0.3859">
        <ele>111</ele>
        <time>2013-08-31T13:25:00Z</time>
      </trkpt>
      <trkpt lat="44.78547" lon="-0.38566">
        <ele>111</ele>
        <time>2013-08-31T13:25:11Z</time>
      </trkpt>
      <trkpt lat="44.78579" lon="-0.38545">
        <ele>111</ele>
        <time>2013-08-31T13:25:21Z</time>
      </trkpt>
      <trkpt lat="44.78591" lon="-0.38538">
        <ele>111</ele>
        <time>2013-08-31T13:25:24Z</time>
      </trkpt>
      <trkpt lat="44.78596" lon="-0.38535">
        <ele>111</ele>
        <time>2013-08-31T13:25:25Z</time>
      </trkpt>
      <trkpt lat="44.78601" lon="-0.38533">
        <ele>111</ele>
        <time>2013-08-31T13:25:26Z</time>
      </trkpt>
      <trkpt lat="44.78654" lon="-0.38523">
        <ele>110</ele>
        <time>2013-08-31T13:25:35Z</time>
      </trkpt>
      <trkpt lat="44.7869" lon="-0.38503">
        <ele>108</ele>
        <time>2013-08-31T13:25:41Z</time>
      </trkpt>
      <trkpt lat="44.78695" lon="-0.38498">
        <ele>107</ele>
        <time>2013-08-31T13:25:42Z</time>
      </trkpt>
      <trkpt lat="44.787" lon="-0.38492">
        <ele>107</ele>
        <time>2013-08-31T13:25:43Z</time>
      </trkpt>
      <trkpt lat="44.78708" lon="-0.3848">
        <ele>107</ele>
        <time>2013-08-31T13:25:45Z</time>
      </trkpt>
      <trkpt lat="44.78731" lon="-0.38432">
        <ele>107</ele>
        <time>2013-08-31T13:25:52Z</time>
      </trkpt>
      <trkpt lat="44.78748" lon="-0.38407">
        <ele>107</ele>
        <time>2013-08-31T13:25:58Z</time>
      </trkpt>
      <trkpt lat="44.78781" lon="-0.38368">
        <ele>106</ele>
        <time>2013-08-31T13:26:07Z</time>
      </trkpt>
      <trkpt lat="44.78812" lon="-0.38324">
        <ele>106</ele>
        <time>2013-08-31T13:26:16Z</time>
      </trkpt>
      <trkpt lat="44.78845" lon="-0.38288">
        <ele>105</ele>
        <time>2013-08-31T13:26:25Z</time>
      </trkpt>
      <trkpt lat="44.78852" lon="-0.38282">
        <ele>105</ele>
        <time>2013-08-31T13:26:27Z</time>
      </trkpt>
      <trkpt lat="44.78864" lon="-0.3827">
        <ele>106</ele>
        <time>2013-08-31T13:26:30Z</time>
      </trkpt>
      <trkpt lat="44.78868" lon="-0.38265">
        <ele>105</ele>
        <time>2013-08-31T13:26:31Z</time>
      </trkpt>
      <trkpt lat="44.78906" lon="-0.38233">
        <ele>105</ele>
        <time>2013-08-31T13:26:39Z</time>
      </trkpt>
      <trkpt lat="44.78955" lon="-0.382">
        <ele>103</ele>
        <time>2013-08-31T13:26:49Z</time>
      </trkpt>
      <trkpt lat="44.78974" lon="-0.38191">
        <ele>102</ele>
        <time>2013-08-31T13:26:53Z</time>
      </trkpt>
      <trkpt lat="44.79005" lon="-0.3817">
        <ele>101</ele>
        <time>2013-08-31T13:27:00Z</time>
      </trkpt>
      <trkpt lat="44.79039" lon="-0.38153">
        <ele>101</ele>
        <time>2013-08-31T13:27:08Z</time>
      </trkpt>
      <trkpt lat="44.79043" lon="-0.38152">
        <ele>101</ele>
        <time>2013-08-31T13:27:09Z</time>
      </trkpt>
      <trkpt lat="44.79087" lon="-0.38156">
        <ele>100</ele>
        <time>2013-08-31T13:27:18Z</time>
      </trkpt>
      <trkpt lat="44.79123" lon="-0.38159">
        <ele>99</ele>
        <time>2013-08-31T13:27:25Z</time>
      </trkpt>
      <trkpt lat="44.79169" lon="-0.38154">
        <ele>99</ele>
        <time>2013-08-31T13:27:34Z</time>
      </trkpt>
      <trkpt lat="44.79206" lon="-0.38148">
        <ele>100</ele>
        <time>2013-08-31T13:27:43Z</time>
      </trkpt>
      <trkpt lat="44.79215" lon="-0.3814">
        <ele>100</ele>
        <time>2013-08-31T13:27:48Z</time>
      </trkpt>
      <trkpt lat="44.79215" lon="-0.38138">
        <ele>100</ele>
        <time>2013-08-31T13:27:49Z</time>
      </trkpt>
      <trkpt lat="44.79214" lon="-0.38135">
        <ele>100</ele>
        <time>2013-08-31T13:27:50Z</time>
      </trkpt>
      <trkpt lat="44.79213" lon="-0.38133">
        <ele>100</ele>
        <time>2013-08-31T13:27:51Z</time>
      </trkpt>
      <trkpt lat="44.79211" lon="-0.3813">
        <ele>100</ele>
        <time>2013-08-31T13:27:52Z</time>
      </trkpt>
      <trkpt lat="44.79191" lon="-0.38108">
        <ele>100</ele>
        <time>2013-08-31T13:27:58Z</time>
      </trkpt>
      <trkpt lat="44.79188" lon="-0.38104">
        <ele>100</ele>
        <time>2013-08-31T13:27:59Z</time>
      </trkpt>
      <trkpt lat="44.79185" lon="-0.38099">
        <ele>100</ele>
        <time>2013-08-31T13:28:00Z</time>
      </trkpt>
      <trkpt lat="44.79164" lon="-0.38067">
        <ele>101</ele>
        <time>2013-08-31T13:28:07Z</time>
      </trkpt>
      <trkpt lat="44.79159" lon="-0.38057">
        <ele>101</ele>
        <time>2013-08-31T13:28:09Z</time>
      </trkpt>
      <trkpt lat="44.79156" lon="-0.38053">
        <ele>101</ele>
        <time>2013-08-31T13:28:10Z</time>
      </trkpt>
      <trkpt lat="44.7915" lon="-0.38044">
        <ele>101</ele>
        <time>2013-08-31T13:28:12Z</time>
      </trkpt>
      <trkpt lat="44.79139" lon="-0.38026">
        <ele>101</ele>
        <time>2013-08-31T13:28:16Z</time>
      </trkpt>
      <trkpt lat="44.79137" lon="-0.38021">
        <ele>101</ele>
        <time>2013-08-31T13:28:17Z</time>
      </trkpt>
      <trkpt lat="44.79107" lon="-0.37979">
        <ele>102</ele>
        <time>2013-08-31T13:28:26Z</time>
      </trkpt>
      <trkpt lat="44.79076" lon="-0.37941">
        <ele>102</ele>
        <time>2013-08-31T13:28:35Z</time>
      </trkpt>
      <trkpt lat="44.79049" lon="-0.37914">
        <ele>103</ele>
        <time>2013-08-31T13:28:43Z</time>
      </trkpt>
      <trkpt lat="44.7902" lon="-0.37886">
        <ele>104</ele>
        <time>2013-08-31T13:28:51Z</time>
      </trkpt>
      <trkpt lat="44.79" lon="-0.37864">
        <ele>104</ele>
        <time>2013-08-31T13:28:57Z</time>
      </trkpt>
      <trkpt lat="44.78995" lon="-0.37858">
        <ele>104</ele>
        <time>2013-08-31T13:28:59Z</time>
      </trkpt>
      <trkpt lat="44.7897" lon="-0.37835">
        <ele>105</ele>
        <time>2013-08-31T13:29:06Z</time>
      </trkpt>
      <trkpt lat="44.78952" lon="-0.37808">
        <ele>105</ele>
        <time>2013-08-31T13:29:13Z</time>
      </trkpt>
      <trkpt lat="44.78926" lon="-0.3778">
        <ele>104</ele>
        <time>2013-08-31T13:29:21Z</time>
      </trkpt>
      <trkpt lat="44.78921" lon="-0.37776">
        <ele>104</ele>
        <time>2013-08-31T13:29:22Z</time>
      </trkpt>
      <trkpt lat="44.78862" lon="-0.3775">
        <ele>103</ele>
        <time>2013-08-31T13:29:29Z</time>
      </trkpt>
      <trkpt lat="44.78805" lon="-0.37706">
        <ele>102</ele>
        <time>2013-08-31T13:29:40Z</time>
      </trkpt>
      <trkpt lat="44.78766" lon="-0.37676">
        <ele>102</ele>
        <time>2013-08-31T13:29:48Z</time>
      </trkpt>
      <trkpt lat="44.78728" lon="-0.37643">
        <ele>102</ele>
        <time>2013-08-31T13:29:56Z</time>
      </trkpt>
      <trkpt lat="44.78684" lon="-0.37601">
        <ele>101</ele>
        <time>2013-08-31T13:30:06Z</time>
      </trkpt>
      <trkpt lat="44.78668" lon="-0.37585">
        <ele>101</ele>
        <time>2013-08-31T13:30:10Z</time>
      </trkpt>
      <trkpt lat="44.78664" lon="-0.3758">
        <ele>101</ele>
        <time>2013-08-31T13:30:11Z</time>
      </trkpt>
      <trkpt lat="44.78662" lon="-0.37574">
        <ele>101</ele>
        <time>2013-08-31T13:30:12Z</time>
      </trkpt>
      <trkpt lat="44.78662" lon="-0.37568">
        <ele>101</ele>
        <time>2013-08-31T13:30:13Z</time>
      </trkpt>
      <trkpt lat="44.78663" lon="-0.37563">
        <ele>100</ele>
        <time>2013-08-31T13:30:14Z</time>
      </trkpt>
      <trkpt lat="44.78665" lon="-0.37559">
        <ele>100</ele>
        <time>2013-08-31T13:30:15Z</time>
      </trkpt>
      <trkpt lat="44.78667" lon="-0.37556">
        <ele>100</ele>
        <time>2013-08-31T13:30:16Z</time>
      </trkpt>
      <trkpt lat="44.78671" lon="-0.37554">
        <ele>100</ele>
        <time>2013-08-31T13:30:17Z</time>
      </trkpt>
      <trkpt lat="44.78676" lon="-0.37551">
        <ele>99</ele>
        <time>2013-08-31T13:30:18Z</time>
      </trkpt>
      <trkpt lat="44.78681" lon="-0.37547">
        <ele>99</ele>
        <time>2013-08-31T13:30:19Z</time>
      </trkpt>
      <trkpt lat="44.78685" lon="-0.37542">
        <ele>98</ele>
        <time>2013-08-31T13:30:20Z</time>
      </trkpt>
      <trkpt lat="44.78689" lon="-0.37535">
        <ele>98</ele>
        <time>2013-08-31T13:30:21Z</time>
      </trkpt>
      <trkpt lat="44.78692" lon="-0.37527">
        <ele>97</ele>
        <time>2013-08-31T13:30:22Z</time>
      </trkpt>
      <trkpt lat="44.78696" lon="-0.37519">
        <ele>97</ele>
        <time>2013-08-31T13:30:23Z</time>
      </trkpt>
      <trkpt lat="44.78715" lon="-0.37471">
        <ele>95</ele>
        <time>2013-08-31T13:30:29Z</time>
      </trkpt>
      <trkpt lat="44.78718" lon="-0.37464">
        <ele>95</ele>
        <time>2013-08-31T13:30:30Z</time>
      </trkpt>
      <trkpt lat="44.78719" lon="-0.37457">
        <ele>95</ele>
        <time>2013-08-31T13:30:31Z</time>
      </trkpt>
      <trkpt lat="44.7872" lon="-0.3745">
        <ele>95</ele>
        <time>2013-08-31T13:30:32Z</time>
      </trkpt>
      <trkpt lat="44.7872" lon="-0.37444">
        <ele>95</ele>
        <time>2013-08-31T13:30:33Z</time>
      </trkpt>
      <trkpt lat="44.7872" lon="-0.37439">
        <ele>95</ele>
        <time>2013-08-31T13:30:34Z</time>
      </trkpt>
      <trkpt lat="44.78719" lon="-0.37434">
        <ele>95</ele>
        <time>2013-08-31T13:30:35Z</time>
      </trkpt>
      <trkpt lat="44.78714" lon="-0.3742">
        <ele>95</ele>
        <time>2013-08-31T13:30:38Z</time>
      </trkpt>
      <trkpt lat="44.78708" lon="-0.3741">
        <ele>95</ele>
        <time>2013-08-31T13:30:40Z</time>
      </trkpt>
      <trkpt lat="44.78705" lon="-0.37407">
        <ele>95</ele>
        <time>2013-08-31T13:30:41Z</time>
      </trkpt>
      <trkpt lat="44.78701" lon="-0.37405">
        <ele>96</ele>
        <time>2013-08-31T13:30:42Z</time>
      </trkpt>
      <trkpt lat="44.78698" lon="-0.37402">
        <ele>96</ele>
        <time>2013-08-31T13:30:43Z</time>
      </trkpt>
      <trkpt lat="44.78695" lon="-0.37398">
        <ele>96</ele>
        <time>2013-08-31T13:30:44Z</time>
      </trkpt>
      <trkpt lat="44.78692" lon="-0.37393">
        <ele>96</ele>
        <time>2013-08-31T13:30:45Z</time>
      </trkpt>
      <trkpt lat="44.78689" lon="-0.37388">
        <ele>96</ele>
        <time>2013-08-31T13:30:46Z</time>
      </trkpt>
      <trkpt lat="44.78688" lon="-0.37381">
        <ele>96</ele>
        <time>2013-08-31T13:30:47Z</time>
      </trkpt>
      <trkpt lat="44.78688" lon="-0.37375">
        <ele>96</ele>
        <time>2013-08-31T13:30:48Z</time>
      </trkpt>
      <trkpt lat="44.78686" lon="-0.37362">
        <ele>95</ele>
        <time>2013-08-31T13:30:50Z</time>
      </trkpt>
      <trkpt lat="44.78686" lon="-0.37349">
        <ele>95</ele>
        <time>2013-08-31T13:30:52Z</time>
      </trkpt>
      <trkpt lat="44.78684" lon="-0.37342">
        <ele>94</ele>
        <time>2013-08-31T13:30:53Z</time>
      </trkpt>
      <trkpt lat="44.78683" lon="-0.37335">
        <ele>94</ele>
        <time>2013-08-31T13:30:54Z</time>
      </trkpt>
      <trkpt lat="44.78682" lon="-0.37329">
        <ele>94</ele>
        <time>2013-08-31T13:30:55Z</time>
      </trkpt>
      <trkpt lat="44.7868" lon="-0.37322">
        <ele>94</ele>
        <time>2013-08-31T13:30:56Z</time>
      </trkpt>
      <trkpt lat="44.78677" lon="-0.37316">
        <ele>94</ele>
        <time>2013-08-31T13:30:57Z</time>
      </trkpt>
      <trkpt lat="44.78675" lon="-0.37309">
        <ele>93</ele>
        <time>2013-08-31T13:30:58Z</time>
      </trkpt>
      <trkpt lat="44.78673" lon="-0.37304">
        <ele>93</ele>
        <time>2013-08-31T13:30:59Z</time>
      </trkpt>
      <trkpt lat="44.78671" lon="-0.37299">
        <ele>93</ele>
        <time>2013-08-31T13:31:00Z</time>
      </trkpt>
      <trkpt lat="44.78669" lon="-0.37297">
        <ele>93</ele>
        <time>2013-08-31T13:31:01Z</time>
      </trkpt>
      <trkpt lat="44.78668" lon="-0.37295">
        <ele>93</ele>
        <time>2013-08-31T13:31:02Z</time>
      </trkpt>
      <trkpt lat="44.78663" lon="-0.37291">
        <ele>93</ele>
        <time>2013-08-31T13:31:08Z</time>
      </trkpt>
      <trkpt lat="44.78662" lon="-0.37289">
        <ele>93</ele>
        <time>2013-08-31T13:31:14Z</time>
      </trkpt>
      <trkpt lat="44.78663" lon="-0.37288">
        <ele>93</ele>
        <time>2013-08-31T13:31:15Z</time>
      </trkpt>
      <trkpt lat="44.78664" lon="-0.37286">
        <ele>93</ele>
        <time>2013-08-31T13:31:18Z</time>
      </trkpt>
      <trkpt lat="44.78665" lon="-0.37285">
        <ele>93</ele>
        <time>2013-08-31T13:31:19Z</time>
      </trkpt>
      <trkpt lat="44.78667" lon="-0.37283">
        <ele>93</ele>
        <time>2013-08-31T13:31:20Z</time>
      </trkpt>
      <trkpt lat="44.78669" lon="-0.37282">
        <ele>93</ele>
        <time>2013-08-31T13:31:21Z</time>
      </trkpt>
      <trkpt lat="44.78671" lon="-0.37281">
        <ele>93</ele>
        <time>2013-08-31T13:31:22Z</time>
      </trkpt>
      <trkpt lat="44.78688" lon="-0.37274">
        <ele>91</ele>
        <time>2013-08-31T13:31:27Z</time>
      </trkpt>
      <trkpt lat="44.78716" lon="-0.37267">
        <ele>89</ele>
        <time>2013-08-31T13:31:34Z</time>
      </trkpt>
      <trkpt lat="44.78727" lon="-0.37255">
        <ele>88</ele>
        <time>2013-08-31T13:31:39Z</time>
      </trkpt>
      <trkpt lat="44.78729" lon="-0.37246">
        <ele>87</ele>
        <time>2013-08-31T13:31:41Z</time>
      </trkpt>
      <trkpt lat="44.78731" lon="-0.37224">
        <ele>87</ele>
        <time>2013-08-31T13:31:46Z</time>
      </trkpt>
      <trkpt lat="44.78741" lon="-0.37207">
        <ele>86</ele>
        <time>2013-08-31T13:31:53Z</time>
      </trkpt>
      <trkpt lat="44.78755" lon="-0.37191">
        <ele>86</ele>
        <time>2013-08-31T13:31:59Z</time>
      </trkpt>
      <trkpt lat="44.78777" lon="-0.37167">
        <ele>87</ele>
        <time>2013-08-31T13:32:09Z</time>
      </trkpt>
      <trkpt lat="44.7879" lon="-0.37154">
        <ele>88</ele>
        <time>2013-08-31T13:32:15Z</time>
      </trkpt>
      <trkpt lat="44.78796" lon="-0.37143">
        <ele>88</ele>
        <time>2013-08-31T13:32:18Z</time>
      </trkpt>
      <trkpt lat="44.78803" lon="-0.37133">
        <ele>88</ele>
        <time>2013-08-31T13:32:26Z</time>
      </trkpt>
      <trkpt lat="44.78805" lon="-0.3713">
        <ele>88</ele>
        <time>2013-08-31T13:32:33Z</time>
      </trkpt>
      <trkpt lat="44.78806" lon="-0.3713">
        <ele>88</ele>
        <time>2013-08-31T13:32:37Z</time>
      </trkpt>
      <trkpt lat="44.78817" lon="-0.37118">
        <ele>88</ele>
        <time>2013-08-31T13:32:42Z</time>
      </trkpt>
      <trkpt lat="44.78828" lon="-0.37108">
        <ele>87</ele>
        <time>2013-08-31T13:32:45Z</time>
      </trkpt>
      <trkpt lat="44.78846" lon="-0.37082">
        <ele>87</ele>
        <time>2013-08-31T13:32:50Z</time>
      </trkpt>
      <trkpt lat="44.78863" lon="-0.37051">
        <ele>86</ele>
        <time>2013-08-31T13:32:56Z</time>
      </trkpt>
      <trkpt lat="44.78873" lon="-0.37028">
        <ele>84</ele>
        <time>2013-08-31T13:33:01Z</time>
      </trkpt>
      <trkpt lat="44.78883" lon="-0.37005">
        <ele>83</ele>
        <time>2013-08-31T13:33:07Z</time>
      </trkpt>
      <trkpt lat="44.78887" lon="-0.36995">
        <ele>82</ele>
        <time>2013-08-31T13:33:11Z</time>
      </trkpt>
      <trkpt lat="44.7888" lon="-0.36974">
        <ele>82</ele>
        <time>2013-08-31T13:33:20Z</time>
      </trkpt>
      <trkpt lat="44.78874" lon="-0.36963">
        <ele>82</ele>
        <time>2013-08-31T13:33:31Z</time>
      </trkpt>
      <trkpt lat="44.78876" lon="-0.36959">
        <ele>81</ele>
        <time>2013-08-31T13:33:39Z</time>
      </trkpt>
      <trkpt lat="44.78876" lon="-0.36957">
        <ele>81</ele>
        <time>2013-08-31T13:33:47Z</time>
      </trkpt>
      <trkpt lat="44.78881" lon="-0.36955">
        <ele>80</ele>
        <time>2013-08-31T13:34:00Z</time>
      </trkpt>
      <trkpt lat="44.78883" lon="-0.36947">
        <ele>79</ele>
        <time>2013-08-31T13:34:15Z</time>
      </trkpt>
      <trkpt lat="44.78885" lon="-0.36943">
        <ele>78</ele>
        <time>2013-08-31T13:34:26Z</time>
      </trkpt>
      <trkpt lat="44.78895" lon="-0.36931">
        <ele>77</ele>
        <time>2013-08-31T13:34:34Z</time>
      </trkpt>
      <trkpt lat="44.789" lon="-0.36923">
        <ele>78</ele>
        <time>2013-08-31T13:34:41Z</time>
      </trkpt>
      <trkpt lat="44.78908" lon="-0.36911">
        <ele>78</ele>
        <time>2013-08-31T13:34:49Z</time>
      </trkpt>
      <trkpt lat="44.78914" lon="-0.36903">
        <ele>79</ele>
        <time>2013-08-31T13:34:55Z</time>
      </trkpt>
      <trkpt lat="44.78919" lon="-0.36891">
        <ele>79</ele>
        <time>2013-08-31T13:35:02Z</time>
      </trkpt>
      <trkpt lat="44.78926" lon="-0.36875">
        <ele>81</ele>
        <time>2013-08-31T13:35:10Z</time>
      </trkpt>
      <trkpt lat="44.78925" lon="-0.36863">
        <ele>83</ele>
        <time>2013-08-31T13:35:19Z</time>
      </trkpt>
      <trkpt lat="44.78922" lon="-0.36859">
        <ele>83</ele>
        <time>2013-08-31T13:35:27Z</time>
      </trkpt>
      <trkpt lat="44.78921" lon="-0.36846">
        <ele>85</ele>
        <time>2013-08-31T13:35:35Z</time>
      </trkpt>
      <trkpt lat="44.7892" lon="-0.36845">
        <ele>85</ele>
        <time>2013-08-31T13:35:37Z</time>
      </trkpt>
      <trkpt lat="44.7892" lon="-0.36843">
        <ele>85</ele>
        <time>2013-08-31T13:35:38Z</time>
      </trkpt>
      <trkpt lat="44.78918" lon="-0.36839">
        <ele>86</ele>
        <time>2013-08-31T13:35:40Z</time>
      </trkpt>
      <trkpt lat="44.78917" lon="-0.36835">
        <ele>86</ele>
        <time>2013-08-31T13:35:42Z</time>
      </trkpt>
      <trkpt lat="44.78915" lon="-0.36833">
        <ele>87</ele>
        <time>2013-08-31T13:35:43Z</time>
      </trkpt>
      <trkpt lat="44.78912" lon="-0.36829">
        <ele>87</ele>
        <time>2013-08-31T13:35:45Z</time>
      </trkpt>
      <trkpt lat="44.78895" lon="-0.36815">
        <ele>89</ele>
        <time>2013-08-31T13:35:53Z</time>
      </trkpt>
      <trkpt lat="44.78874" lon="-0.36812">
        <ele>87</ele>
        <time>2013-08-31T13:35:57Z</time>
      </trkpt>
      <trkpt lat="44.78872" lon="-0.36811">
        <ele>87</ele>
        <time>2013-08-31T13:36:07Z</time>
      </trkpt>
      <trkpt lat="44.78871" lon="-0.36809">
        <ele>87</ele>
        <time>2013-08-31T13:36:23Z</time>
      </trkpt>
      <trkpt lat="44.78871" lon="-0.36805">
        <ele>87</ele>
        <time>2013-08-31T13:36:36Z</time>
      </trkpt>
      <trkpt lat="44.78872" lon="-0.36804">
        <ele>88</ele>
        <time>2013-08-31T13:36:46Z</time>
      </trkpt>
      <trkpt lat="44.78872" lon="-0.36804">
        <ele>88</ele>
        <time>2013-08-31T13:36:59Z</time>
      </trkpt>
      <trkpt lat="44.78874" lon="-0.36802">
        <ele>88</ele>
        <time>2013-08-31T13:37:11Z</time>
      </trkpt>
      <trkpt lat="44.78874" lon="-0.36802">
        <ele>88</ele>
        <time>2013-08-31T13:37:24Z</time>
      </trkpt>
      <trkpt lat="44.78874" lon="-0.36801">
        <ele>88</ele>
        <time>2013-08-31T13:37:40Z</time>
      </trkpt>
      <trkpt lat="44.78876" lon="-0.36801">
        <ele>88</ele>
        <time>2013-08-31T13:37:52Z</time>
      </trkpt>
      <trkpt lat="44.78877" lon="-0.36801">
        <ele>88</ele>
        <time>2013-08-31T13:38:11Z</time>
      </trkpt>
      <trkpt lat="44.78877" lon="-0.36802">
        <ele>88</ele>
        <time>2013-08-31T13:38:26Z</time>
      </trkpt>
      <trkpt lat="44.78877" lon="-0.36801">
        <ele>88</ele>
        <time>2013-08-31T13:38:44Z</time>
      </trkpt>
      <trkpt lat="44.78876" lon="-0.36801">
        <ele>88</ele>
        <time>2013-08-31T13:39:02Z</time>
      </trkpt>
      <trkpt lat="44.78876" lon="-0.368">
        <ele>88</ele>
        <time>2013-08-31T13:39:19Z</time>
      </trkpt>
      <trkpt lat="44.78877" lon="-0.36799">
        <ele>88</ele>
        <time>2013-08-31T13:39:36Z</time>
      </trkpt>
      <trkpt lat="44.78877" lon="-0.36799">
        <ele>88</ele>
        <time>2013-08-31T13:39:50Z</time>
      </trkpt>
      <trkpt lat="44.78877" lon="-0.36799">
        <ele>88</ele>
        <time>2013-08-31T13:40:00Z</time>
      </trkpt>
      <trkpt lat="44.78877" lon="-0.36799">
        <ele>88</ele>
        <time>2013-08-31T13:40:09Z</time>
      </trkpt>
      <trkpt lat="44.78878" lon="-0.36798">
        <ele>89</ele>
        <time>2013-08-31T13:40:23Z</time>
      </trkpt>
      <trkpt lat="44.78878" lon="-0.36795">
        <ele>89</ele>
        <time>2013-08-31T13:40:33Z</time>
      </trkpt>
      <trkpt lat="44.78878" lon="-0.36795">
        <ele>89</ele>
        <time>2013-08-31T13:40:45Z</time>
      </trkpt>
      <trkpt lat="44.78878" lon="-0.36793">
        <ele>89</ele>
        <time>2013-08-31T13:41:06Z</time>
      </trkpt>
      <trkpt lat="44.78879" lon="-0.36792">
        <ele>89</ele>
        <time>2013-08-31T13:41:24Z</time>
      </trkpt>
      <trkpt lat="44.78879" lon="-0.36791">
        <ele>89</ele>
        <time>2013-08-31T13:41:34Z</time>
      </trkpt>
      <trkpt lat="44.78881" lon="-0.36788">
        <ele>90</ele>
        <time>2013-08-31T13:41:42Z</time>
      </trkpt>
      <trkpt lat="44.78889" lon="-0.36777">
        <ele>91</ele>
        <time>2013-08-31T13:41:50Z</time>
      </trkpt>
      <trkpt lat="44.789" lon="-0.36764">
        <ele>93</ele>
        <time>2013-08-31T13:41:59Z</time>
      </trkpt>
      <trkpt lat="44.78905" lon="-0.36759">
        <ele>93</ele>
        <time>2013-08-31T13:42:03Z</time>
      </trkpt>
      <trkpt lat="44.78919" lon="-0.36743">
        <ele>94</ele>
        <time>2013-08-31T13:42:12Z</time>
      </trkpt>
      <trkpt lat="44.78934" lon="-0.36722">
        <ele>94</ele>
        <time>2013-08-31T13:42:21Z</time>
      </trkpt>
      <trkpt lat="44.78948" lon="-0.36704">
        <ele>94</ele>
        <time>2013-08-31T13:42:29Z</time>
      </trkpt>
      <trkpt lat="44.7896" lon="-0.36692">
        <ele>94</ele>
        <time>2013-08-31T13:42:36Z</time>
      </trkpt>
      <trkpt lat="44.78981" lon="-0.36671">
        <ele>94</ele>
        <time>2013-08-31T13:42:46Z</time>
      </trkpt>
      <trkpt lat="44.78998" lon="-0.36652">
        <ele>95</ele>
        <time>2013-08-31T13:42:55Z</time>
      </trkpt>
      <trkpt lat="44.79016" lon="-0.36632">
        <ele>95</ele>
        <time>2013-08-31T13:43:03Z</time>
      </trkpt>
      <trkpt lat="44.79043" lon="-0.36606">
        <ele>96</ele>
        <time>2013-08-31T13:43:13Z</time>
      </trkpt>
      <trkpt lat="44.79061" lon="-0.36585">
        <ele>96</ele>
        <time>2013-08-31T13:43:20Z</time>
      </trkpt>
      <trkpt lat="44.79085" lon="-0.36549">
        <ele>96</ele>
        <time>2013-08-31T13:43:29Z</time>
      </trkpt>
      <trkpt lat="44.79088" lon="-0.36545">
        <ele>96</ele>
        <time>2013-08-31T13:43:30Z</time>
      </trkpt>
      <trkpt lat="44.79091" lon="-0.3654">
        <ele>95</ele>
        <time>2013-08-31T13:43:31Z</time>
      </trkpt>
      <trkpt lat="44.79094" lon="-0.36535">
        <ele>95</ele>
        <time>2013-08-31T13:43:32Z</time>
      </trkpt>
      <trkpt lat="44.79098" lon="-0.3653">
        <ele>94</ele>
        <time>2013-08-31T13:43:33Z</time>
      </trkpt>
      <trkpt lat="44.79103" lon="-0.36525">
        <ele>94</ele>
        <time>2013-08-31T13:43:34Z</time>
      </trkpt>
      <trkpt lat="44.79122" lon="-0.36508">
        <ele>91</ele>
        <time>2013-08-31T13:43:39Z</time>
      </trkpt>
      <trkpt lat="44.79128" lon="-0.36488">
        <ele>88</ele>
        <time>2013-08-31T13:43:44Z</time>
      </trkpt>
      <trkpt lat="44.79122" lon="-0.36464">
        <ele>87</ele>
        <time>2013-08-31T13:43:49Z</time>
      </trkpt>
      <trkpt lat="44.79119" lon="-0.3646">
        <ele>88</ele>
        <time>2013-08-31T13:43:50Z</time>
      </trkpt>
      <trkpt lat="44.79106" lon="-0.36436">
        <ele>88</ele>
        <time>2013-08-31T13:43:56Z</time>
      </trkpt>
      <trkpt lat="44.79087" lon="-0.36401">
        <ele>88</ele>
        <time>2013-08-31T13:44:03Z</time>
      </trkpt>
      <trkpt lat="44.79083" lon="-0.3639">
        <ele>88</ele>
        <time>2013-08-31T13:44:05Z</time>
      </trkpt>
      <trkpt lat="44.79079" lon="-0.36378">
        <ele>88</ele>
        <time>2013-08-31T13:44:07Z</time>
      </trkpt>
      <trkpt lat="44.79075" lon="-0.36366">
        <ele>89</ele>
        <time>2013-08-31T13:44:09Z</time>
      </trkpt>
      <trkpt lat="44.79074" lon="-0.3636">
        <ele>89</ele>
        <time>2013-08-31T13:44:10Z</time>
      </trkpt>
      <trkpt lat="44.7907" lon="-0.36324">
        <ele>90</ele>
        <time>2013-08-31T13:44:16Z</time>
      </trkpt>
      <trkpt lat="44.79066" lon="-0.36298">
        <ele>90</ele>
        <time>2013-08-31T13:44:21Z</time>
      </trkpt>
      <trkpt lat="44.79059" lon="-0.36264">
        <ele>92</ele>
        <time>2013-08-31T13:44:28Z</time>
      </trkpt>
      <trkpt lat="44.79053" lon="-0.36232">
        <ele>93</ele>
        <time>2013-08-31T13:44:35Z</time>
      </trkpt>
      <trkpt lat="44.79047" lon="-0.36211">
        <ele>93</ele>
        <time>2013-08-31T13:44:41Z</time>
      </trkpt>
      <trkpt lat="44.79038" lon="-0.36191">
        <ele>94</ele>
        <time>2013-08-31T13:44:46Z</time>
      </trkpt>
      <trkpt lat="44.79032" lon="-0.36168">
        <ele>94</ele>
        <time>2013-08-31T13:44:52Z</time>
      </trkpt>
      <trkpt lat="44.79029" lon="-0.36156">
        <ele>94</ele>
        <time>2013-08-31T13:44:55Z</time>
      </trkpt>
      <trkpt lat="44.79029" lon="-0.36151">
        <ele>93</ele>
        <time>2013-08-31T13:44:56Z</time>
      </trkpt>
      <trkpt lat="44.79029" lon="-0.36139">
        <ele>93</ele>
        <time>2013-08-31T13:44:59Z</time>
      </trkpt>
      <trkpt lat="44.79017" lon="-0.36109">
        <ele>94</ele>
        <time>2013-08-31T13:45:06Z</time>
      </trkpt>
      <trkpt lat="44.79012" lon="-0.36088">
        <ele>95</ele>
        <time>2013-08-31T13:45:10Z</time>
      </trkpt>
      <trkpt lat="44.79011" lon="-0.36083">
        <ele>95</ele>
        <time>2013-08-31T13:45:11Z</time>
      </trkpt>
      <trkpt lat="44.79011" lon="-0.3606">
        <ele>95</ele>
        <time>2013-08-31T13:45:16Z</time>
      </trkpt>
      <trkpt lat="44.79012" lon="-0.36022">
        <ele>95</ele>
        <time>2013-08-31T13:45:25Z</time>
      </trkpt>
      <trkpt lat="44.79014" lon="-0.36001">
        <ele>95</ele>
        <time>2013-08-31T13:45:31Z</time>
      </trkpt>
      <trkpt lat="44.79015" lon="-0.35997">
        <ele>95</ele>
        <time>2013-08-31T13:45:32Z</time>
      </trkpt>
      <trkpt lat="44.79014" lon="-0.35975">
        <ele>96</ele>
        <time>2013-08-31T13:45:38Z</time>
      </trkpt>
      <trkpt lat="44.79014" lon="-0.35973">
        <ele>96</ele>
        <time>2013-08-31T13:45:39Z</time>
      </trkpt>
      <trkpt lat="44.79013" lon="-0.35972">
        <ele>96</ele>
        <time>2013-08-31T13:45:40Z</time>
      </trkpt>
      <trkpt lat="44.7901" lon="-0.35967">
        <ele>96</ele>
        <time>2013-08-31T13:45:42Z</time>
      </trkpt>
      <trkpt lat="44.79009" lon="-0.35965">
        <ele>96</ele>
        <time>2013-08-31T13:45:43Z</time>
      </trkpt>
      <trkpt lat="44.79003" lon="-0.35956">
        <ele>96</ele>
        <time>2013-08-31T13:45:49Z</time>
      </trkpt>
      <trkpt lat="44.78987" lon="-0.3595">
        <ele>96</ele>
        <time>2013-08-31T13:45:57Z</time>
      </trkpt>
      <trkpt lat="44.78967" lon="-0.35945">
        <ele>97</ele>
        <time>2013-08-31T13:46:05Z</time>
      </trkpt>
      <trkpt lat="44.78943" lon="-0.35942">
        <ele>97</ele>
        <time>2013-08-31T13:46:13Z</time>
      </trkpt>
      <trkpt lat="44.78908" lon="-0.35937">
        <ele>97</ele>
        <time>2013-08-31T13:46:20Z</time>
      </trkpt>
      <trkpt lat="44.78862" lon="-0.35932">
        <ele>97</ele>
        <time>2013-08-31T13:46:28Z</time>
      </trkpt>
      <trkpt lat="44.78857" lon="-0.35931">
        <ele>97</ele>
        <time>2013-08-31T13:46:29Z</time>
      </trkpt>
      <trkpt lat="44.78827" lon="-0.35929">
        <ele>97</ele>
        <time>2013-08-31T13:46:36Z</time>
      </trkpt>
      <trkpt lat="44.78793" lon="-0.35924">
        <ele>97</ele>
        <time>2013-08-31T13:46:44Z</time>
      </trkpt>
      <trkpt lat="44.78784" lon="-0.35921">
        <ele>97</ele>
        <time>2013-08-31T13:46:46Z</time>
      </trkpt>
      <trkpt lat="44.78782" lon="-0.35918">
        <ele>97</ele>
        <time>2013-08-31T13:46:47Z</time>
      </trkpt>
      <trkpt lat="44.78778" lon="-0.35913">
        <ele>97</ele>
        <time>2013-08-31T13:46:48Z</time>
      </trkpt>
      <trkpt lat="44.78779" lon="-0.35908">
        <ele>97</ele>
        <time>2013-08-31T13:46:49Z</time>
      </trkpt>
      <trkpt lat="44.7878" lon="-0.35904">
        <ele>97</ele>
        <time>2013-08-31T13:46:50Z</time>
      </trkpt>
      <trkpt lat="44.78782" lon="-0.35899">
        <ele>97</ele>
        <time>2013-08-31T13:46:51Z</time>
      </trkpt>
      <trkpt lat="44.78777" lon="-0.35894">
        <ele>97</ele>
        <time>2013-08-31T13:46:52Z</time>
      </trkpt>
      <trkpt lat="44.78781" lon="-0.35889">
        <ele>97</ele>
        <time>2013-08-31T13:46:53Z</time>
      </trkpt>
      <trkpt lat="44.78807" lon="-0.35853">
        <ele>97</ele>
        <time>2013-08-31T13:47:02Z</time>
      </trkpt>
      <trkpt lat="44.7883" lon="-0.35825">
        <ele>97</ele>
        <time>2013-08-31T13:47:10Z</time>
      </trkpt>
      <trkpt lat="44.7886" lon="-0.35789">
        <ele>98</ele>
        <time>2013-08-31T13:47:20Z</time>
      </trkpt>
      <trkpt lat="44.78891" lon="-0.35751">
        <ele>98</ele>
        <time>2013-08-31T13:47:30Z</time>
      </trkpt>
      <trkpt lat="44.7892" lon="-0.35718">
        <ele>99</ele>
        <time>2013-08-31T13:47:39Z</time>
      </trkpt>
      <trkpt lat="44.78948" lon="-0.35683">
        <ele>99</ele>
        <time>2013-08-31T13:47:48Z</time>
      </trkpt>
      <trkpt lat="44.78976" lon="-0.35649">
        <ele>98</ele>
        <time>2013-08-31T13:47:57Z</time>
      </trkpt>
      <trkpt lat="44.7901" lon="-0.35611">
        <ele>98</ele>
        <time>2013-08-31T13:48:07Z</time>
      </trkpt>
      <trkpt lat="44.79032" lon="-0.35588">
        <ele>98</ele>
        <time>2013-08-31T13:48:14Z</time>
      </trkpt>
      <trkpt lat="44.79049" lon="-0.35575">
        <ele>99</ele>
        <time>2013-08-31T13:48:20Z</time>
      </trkpt>
      <trkpt lat="44.79053" lon="-0.3557">
        <ele>99</ele>
        <time>2013-08-31T13:48:22Z</time>
      </trkpt>
      <trkpt lat="44.79054" lon="-0.35567">
        <ele>99</ele>
        <time>2013-08-31T13:48:23Z</time>
      </trkpt>
      <trkpt lat="44.79053" lon="-0.35565">
        <ele>99</ele>
        <time>2013-08-31T13:48:24Z</time>
      </trkpt>
      <trkpt lat="44.79051" lon="-0.35562">
        <ele>99</ele>
        <time>2013-08-31T13:48:25Z</time>
      </trkpt>
      <trkpt lat="44.79049" lon="-0.35559">
        <ele>98</ele>
        <time>2013-08-31T13:48:26Z</time>
      </trkpt>
      <trkpt lat="44.79046" lon="-0.35556">
        <ele>98</ele>
        <time>2013-08-31T13:48:27Z</time>
      </trkpt>
      <trkpt lat="44.79036" lon="-0.35539">
        <ele>98</ele>
        <time>2013-08-31T13:48:34Z</time>
      </trkpt>
      <trkpt lat="44.79035" lon="-0.35537">
        <ele>98</ele>
        <time>2013-08-31T13:48:35Z</time>
      </trkpt>
      <trkpt lat="44.79033" lon="-0.35535">
        <ele>98</ele>
        <time>2013-08-31T13:48:36Z</time>
      </trkpt>
      <trkpt lat="44.79033" lon="-0.35532">
        <ele>98</ele>
        <time>2013-08-31T13:48:37Z</time>
      </trkpt>
      <trkpt lat="44.79032" lon="-0.3553">
        <ele>98</ele>
        <time>2013-08-31T13:48:38Z</time>
      </trkpt>
      <trkpt lat="44.79031" lon="-0.35527">
        <ele>98</ele>
        <time>2013-08-31T13:48:39Z</time>
      </trkpt>
      <trkpt lat="44.79031" lon="-0.35525">
        <ele>98</ele>
        <time>2013-08-31T13:48:40Z</time>
      </trkpt>
      <trkpt lat="44.79029" lon="-0.35522">
        <ele>98</ele>
        <time>2013-08-31T13:48:41Z</time>
      </trkpt>
      <trkpt lat="44.79027" lon="-0.3552">
        <ele>97</ele>
        <time>2013-08-31T13:48:42Z</time>
      </trkpt>
      <trkpt lat="44.79026" lon="-0.35517">
        <ele>97</ele>
        <time>2013-08-31T13:48:43Z</time>
      </trkpt>
      <trkpt lat="44.79025" lon="-0.35515">
        <ele>97</ele>
        <time>2013-08-31T13:48:44Z</time>
      </trkpt>
      <trkpt lat="44.79022" lon="-0.35513">
        <ele>97</ele>
        <time>2013-08-31T13:48:45Z</time>
      </trkpt>
      <trkpt lat="44.79019" lon="-0.3551">
        <ele>97</ele>
        <time>2013-08-31T13:48:46Z</time>
      </trkpt>
      <trkpt lat="44.79005" lon="-0.35499">
        <ele>96</ele>
        <time>2013-08-31T13:48:51Z</time>
      </trkpt>
      <trkpt lat="44.79004" lon="-0.35496">
        <ele>96</ele>
        <time>2013-08-31T13:48:52Z</time>
      </trkpt>
      <trkpt lat="44.79003" lon="-0.35492">
        <ele>96</ele>
        <time>2013-08-31T13:48:53Z</time>
      </trkpt>
      <trkpt lat="44.79001" lon="-0.35489">
        <ele>96</ele>
        <time>2013-08-31T13:48:54Z</time>
      </trkpt>
      <trkpt lat="44.79" lon="-0.35486">
        <ele>96</ele>
        <time>2013-08-31T13:48:55Z</time>
      </trkpt>
      <trkpt lat="44.78999" lon="-0.35483">
        <ele>96</ele>
        <time>2013-08-31T13:48:56Z</time>
      </trkpt>
      <trkpt lat="44.78991" lon="-0.35467">
        <ele>96</ele>
        <time>2013-08-31T13:49:02Z</time>
      </trkpt>
      <trkpt lat="44.7898" lon="-0.35447">
        <ele>97</ele>
        <time>2013-08-31T13:49:09Z</time>
      </trkpt>
      <trkpt lat="44.78966" lon="-0.35424">
        <ele>97</ele>
        <time>2013-08-31T13:49:17Z</time>
      </trkpt>
      <trkpt lat="44.78952" lon="-0.35403">
        <ele>96</ele>
        <time>2013-08-31T13:49:25Z</time>
      </trkpt>
      <trkpt lat="44.78947" lon="-0.35399">
        <ele>96</ele>
        <time>2013-08-31T13:49:27Z</time>
      </trkpt>
      <trkpt lat="44.78935" lon="-0.35401">
        <ele>96</ele>
        <time>2013-08-31T13:49:31Z</time>
      </trkpt>
      <trkpt lat="44.78923" lon="-0.35414">
        <ele>95</ele>
        <time>2013-08-31T13:49:37Z</time>
      </trkpt>
      <trkpt lat="44.78921" lon="-0.35415">
        <ele>95</ele>
        <time>2013-08-31T13:49:38Z</time>
      </trkpt>
      <trkpt lat="44.78914" lon="-0.35411">
        <ele>95</ele>
        <time>2013-08-31T13:49:44Z</time>
      </trkpt>
      <trkpt lat="44.7891" lon="-0.35401">
        <ele>95</ele>
        <time>2013-08-31T13:49:51Z</time>
      </trkpt>
      <trkpt lat="44.78906" lon="-0.35389">
        <ele>96</ele>
        <time>2013-08-31T13:49:57Z</time>
      </trkpt>
      <trkpt lat="44.78898" lon="-0.35369">
        <ele>96</ele>
        <time>2013-08-31T13:50:03Z</time>
      </trkpt>
      <trkpt lat="44.78887" lon="-0.35353">
        <ele>96</ele>
        <time>2013-08-31T13:50:07Z</time>
      </trkpt>
      <trkpt lat="44.7888" lon="-0.3534">
        <ele>95</ele>
        <time>2013-08-31T13:50:10Z</time>
      </trkpt>
      <trkpt lat="44.78878" lon="-0.35334">
        <ele>95</ele>
        <time>2013-08-31T13:50:11Z</time>
      </trkpt>
      <trkpt lat="44.78875" lon="-0.35329">
        <ele>94</ele>
        <time>2013-08-31T13:50:12Z</time>
      </trkpt>
      <trkpt lat="44.78872" lon="-0.35324">
        <ele>94</ele>
        <time>2013-08-31T13:50:13Z</time>
      </trkpt>
      <trkpt lat="44.78868" lon="-0.35319">
        <ele>94</ele>
        <time>2013-08-31T13:50:14Z</time>
      </trkpt>
      <trkpt lat="44.78865" lon="-0.35315">
        <ele>93</ele>
        <time>2013-08-31T13:50:15Z</time>
      </trkpt>
      <trkpt lat="44.78861" lon="-0.35312">
        <ele>93</ele>
        <time>2013-08-31T13:50:16Z</time>
      </trkpt>
      <trkpt lat="44.78859" lon="-0.35309">
        <ele>93</ele>
        <time>2013-08-31T13:50:17Z</time>
      </trkpt>
      <trkpt lat="44.78856" lon="-0.35306">
        <ele>92</ele>
        <time>2013-08-31T13:50:18Z</time>
      </trkpt>
      <trkpt lat="44.78854" lon="-0.35304">
        <ele>92</ele>
        <time>2013-08-31T13:50:19Z</time>
      </trkpt>
      <trkpt lat="44.78851" lon="-0.35302">
        <ele>92</ele>
        <time>2013-08-31T13:50:20Z</time>
      </trkpt>
      <trkpt lat="44.78847" lon="-0.353">
        <ele>91</ele>
        <time>2013-08-31T13:50:21Z</time>
      </trkpt>
      <trkpt lat="44.78839" lon="-0.35294">
        <ele>91</ele>
        <time>2013-08-31T13:50:23Z</time>
      </trkpt>
      <trkpt lat="44.78797" lon="-0.35256">
        <ele>87</ele>
        <time>2013-08-31T13:50:31Z</time>
      </trkpt>
      <trkpt lat="44.78766" lon="-0.35228">
        <ele>83</ele>
        <time>2013-08-31T13:50:38Z</time>
      </trkpt>
      <trkpt lat="44.78738" lon="-0.35203">
        <ele>78</ele>
        <time>2013-08-31T13:50:46Z</time>
      </trkpt>
      <trkpt lat="44.78721" lon="-0.35179">
        <ele>74</ele>
        <time>2013-08-31T13:50:52Z</time>
      </trkpt>
      <trkpt lat="44.78709" lon="-0.35158">
        <ele>72</ele>
        <time>2013-08-31T13:50:58Z</time>
      </trkpt>
      <trkpt lat="44.78703" lon="-0.35153">
        <ele>71</ele>
        <time>2013-08-31T13:51:00Z</time>
      </trkpt>
      <trkpt lat="44.787" lon="-0.35153">
        <ele>71</ele>
        <time>2013-08-31T13:51:01Z</time>
      </trkpt>
      <trkpt lat="44.78689" lon="-0.35154">
        <ele>70</ele>
        <time>2013-08-31T13:51:06Z</time>
      </trkpt>
      <trkpt lat="44.78688" lon="-0.35153">
        <ele>70</ele>
        <time>2013-08-31T13:51:07Z</time>
      </trkpt>
      <trkpt lat="44.78682" lon="-0.3515">
        <ele>70</ele>
        <time>2013-08-31T13:51:13Z</time>
      </trkpt>
      <trkpt lat="44.78681" lon="-0.35149">
        <ele>70</ele>
        <time>2013-08-31T13:51:14Z</time>
      </trkpt>
      <trkpt lat="44.78679" lon="-0.35147">
        <ele>70</ele>
        <time>2013-08-31T13:51:20Z</time>
      </trkpt>
      <trkpt lat="44.78675" lon="-0.35144">
        <ele>70</ele>
        <time>2013-08-31T13:51:29Z</time>
      </trkpt>
      <trkpt lat="44.78673" lon="-0.35143">
        <ele>70</ele>
        <time>2013-08-31T13:51:41Z</time>
      </trkpt>
      <trkpt lat="44.78667" lon="-0.3514">
        <ele>69</ele>
        <time>2013-08-31T13:51:49Z</time>
      </trkpt>
      <trkpt lat="44.78664" lon="-0.35133">
        <ele>70</ele>
        <time>2013-08-31T13:51:55Z</time>
      </trkpt>
      <trkpt lat="44.7866" lon="-0.35131">
        <ele>70</ele>
        <time>2013-08-31T13:51:58Z</time>
      </trkpt>
      <trkpt lat="44.78652" lon="-0.35127">
        <ele>71</ele>
        <time>2013-08-31T13:52:03Z</time>
      </trkpt>
      <trkpt lat="44.7865" lon="-0.35126">
        <ele>71</ele>
        <time>2013-08-31T13:52:04Z</time>
      </trkpt>
      <trkpt lat="44.78649" lon="-0.35124">
        <ele>71</ele>
        <time>2013-08-31T13:52:05Z</time>
      </trkpt>
      <trkpt lat="44.78648" lon="-0.35122">
        <ele>71</ele>
        <time>2013-08-31T13:52:06Z</time>
      </trkpt>
      <trkpt lat="44.78646" lon="-0.35121">
        <ele>71</ele>
        <time>2013-08-31T13:52:07Z</time>
      </trkpt>
      <trkpt lat="44.78638" lon="-0.35108">
        <ele>73</ele>
        <time>2013-08-31T13:52:13Z</time>
      </trkpt>
      <trkpt lat="44.78636" lon="-0.35107">
        <ele>73</ele>
        <time>2013-08-31T13:52:14Z</time>
      </trkpt>
      <trkpt lat="44.78619" lon="-0.35095">
        <ele>76</ele>
        <time>2013-08-31T13:52:22Z</time>
      </trkpt>
      <trkpt lat="44.78614" lon="-0.35087">
        <ele>77</ele>
        <time>2013-08-31T13:52:28Z</time>
      </trkpt>
      <trkpt lat="44.78616" lon="-0.35079">
        <ele>77</ele>
        <time>2013-08-31T13:52:35Z</time>
      </trkpt>
      <trkpt lat="44.78611" lon="-0.35071">
        <ele>78</ele>
        <time>2013-08-31T13:52:41Z</time>
      </trkpt>
      <trkpt lat="44.78608" lon="-0.35064">
        <ele>78</ele>
        <time>2013-08-31T13:52:48Z</time>
      </trkpt>
      <trkpt lat="44.78597" lon="-0.35055">
        <ele>80</ele>
        <time>2013-08-31T13:52:55Z</time>
      </trkpt>
      <trkpt lat="44.7859" lon="-0.3505">
        <ele>81</ele>
        <time>2013-08-31T13:53:02Z</time>
      </trkpt>
      <trkpt lat="44.78586" lon="-0.35048">
        <ele>82</ele>
        <time>2013-08-31T13:53:08Z</time>
      </trkpt>
      <trkpt lat="44.78581" lon="-0.35044">
        <ele>83</ele>
        <time>2013-08-31T13:53:14Z</time>
      </trkpt>
      <trkpt lat="44.78576" lon="-0.35037">
        <ele>84</ele>
        <time>2013-08-31T13:53:19Z</time>
      </trkpt>
      <trkpt lat="44.7857" lon="-0.35032">
        <ele>84</ele>
        <time>2013-08-31T13:53:25Z</time>
      </trkpt>
      <trkpt lat="44.78566" lon="-0.35026">
        <ele>85</ele>
        <time>2013-08-31T13:53:32Z</time>
      </trkpt>
      <trkpt lat="44.7856" lon="-0.35017">
        <ele>86</ele>
        <time>2013-08-31T13:53:38Z</time>
      </trkpt>
      <trkpt lat="44.78558" lon="-0.35015">
        <ele>86</ele>
        <time>2013-08-31T13:53:39Z</time>
      </trkpt>
      <trkpt lat="44.78551" lon="-0.35004">
        <ele>87</ele>
        <time>2013-08-31T13:53:45Z</time>
      </trkpt>
      <trkpt lat="44.78552" lon="-0.34994">
        <ele>87</ele>
        <time>2013-08-31T13:53:53Z</time>
      </trkpt>
      <trkpt lat="44.78547" lon="-0.34982">
        <ele>88</ele>
        <time>2013-08-31T13:54:00Z</time>
      </trkpt>
      <trkpt lat="44.7854" lon="-0.34974">
        <ele>90</ele>
        <time>2013-08-31T13:54:06Z</time>
      </trkpt>
      <trkpt lat="44.78533" lon="-0.34964">
        <ele>91</ele>
        <time>2013-08-31T13:54:15Z</time>
      </trkpt>
      <trkpt lat="44.78525" lon="-0.34959">
        <ele>91</ele>
        <time>2013-08-31T13:54:19Z</time>
      </trkpt>
      <trkpt lat="44.78523" lon="-0.34958">
        <ele>91</ele>
        <time>2013-08-31T13:54:20Z</time>
      </trkpt>
      <trkpt lat="44.78522" lon="-0.34957">
        <ele>92</ele>
        <time>2013-08-31T13:54:21Z</time>
      </trkpt>
      <trkpt lat="44.7852" lon="-0.34955">
        <ele>92</ele>
        <time>2013-08-31T13:54:22Z</time>
      </trkpt>
      <trkpt lat="44.78519" lon="-0.34954">
        <ele>92</ele>
        <time>2013-08-31T13:54:23Z</time>
      </trkpt>
      <trkpt lat="44.78487" lon="-0.34949">
        <ele>93</ele>
        <time>2013-08-31T13:54:26Z</time>
      </trkpt>
      <trkpt lat="44.78481" lon="-0.34948">
        <ele>93</ele>
        <time>2013-08-31T13:54:27Z</time>
      </trkpt>
      <trkpt lat="44.78478" lon="-0.34946">
        <ele>93</ele>
        <time>2013-08-31T13:54:29Z</time>
      </trkpt>
      <trkpt lat="44.78475" lon="-0.34945">
        <ele>93</ele>
        <time>2013-08-31T13:54:30Z</time>
      </trkpt>
      <trkpt lat="44.78473" lon="-0.34944">
        <ele>93</ele>
        <time>2013-08-31T13:54:31Z</time>
      </trkpt>
      <trkpt lat="44.7847" lon="-0.34943">
        <ele>93</ele>
        <time>2013-08-31T13:54:32Z</time>
      </trkpt>
      <trkpt lat="44.78469" lon="-0.34942">
        <ele>93</ele>
        <time>2013-08-31T13:54:33Z</time>
      </trkpt>
      <trkpt lat="44.78459" lon="-0.34932">
        <ele>93</ele>
        <time>2013-08-31T13:54:42Z</time>
      </trkpt>
      <trkpt lat="44.7845" lon="-0.34928">
        <ele>93</ele>
        <time>2013-08-31T13:54:49Z</time>
      </trkpt>
      <trkpt lat="44.78434" lon="-0.34924">
        <ele>94</ele>
        <time>2013-08-31T13:54:58Z</time>
      </trkpt>
      <trkpt lat="44.78432" lon="-0.34922">
        <ele>94</ele>
        <time>2013-08-31T13:55:06Z</time>
      </trkpt>
      <trkpt lat="44.78428" lon="-0.34921">
        <ele>94</ele>
        <time>2013-08-31T13:55:14Z</time>
      </trkpt>
      <trkpt lat="44.78417" lon="-0.34918">
        <ele>95</ele>
        <time>2013-08-31T13:55:23Z</time>
      </trkpt>
      <trkpt lat="44.78389" lon="-0.34911">
        <ele>96</ele>
        <time>2013-08-31T13:55:34Z</time>
      </trkpt>
      <trkpt lat="44.7836" lon="-0.34905">
        <ele>96</ele>
        <time>2013-08-31T13:55:43Z</time>
      </trkpt>
      <trkpt lat="44.78335" lon="-0.34897">
        <ele>96</ele>
        <time>2013-08-31T13:55:52Z</time>
      </trkpt>
      <trkpt lat="44.78318" lon="-0.34888">
        <ele>96</ele>
        <time>2013-08-31T13:56:00Z</time>
      </trkpt>
      <trkpt lat="44.78298" lon="-0.34878">
        <ele>96</ele>
        <time>2013-08-31T13:56:09Z</time>
      </trkpt>
      <trkpt lat="44.78279" lon="-0.34865">
        <ele>96</ele>
        <time>2013-08-31T13:56:19Z</time>
      </trkpt>
      <trkpt lat="44.78274" lon="-0.34863">
        <ele>96</ele>
        <time>2013-08-31T13:56:27Z</time>
      </trkpt>
      <trkpt lat="44.78274" lon="-0.34863">
        <ele>96</ele>
        <time>2013-08-31T13:56:43Z</time>
      </trkpt>
      <trkpt lat="44.78273" lon="-0.34864">
        <ele>96</ele>
        <time>2013-08-31T13:57:01Z</time>
      </trkpt>
      <trkpt lat="44.78268" lon="-0.3486">
        <ele>96</ele>
        <time>2013-08-31T13:57:12Z</time>
      </trkpt>
      <trkpt lat="44.78251" lon="-0.34846">
        <ele>96</ele>
        <time>2013-08-31T13:57:22Z</time>
      </trkpt>
      <trkpt lat="44.7825" lon="-0.34845">
        <ele>96</ele>
        <time>2013-08-31T13:57:23Z</time>
      </trkpt>
      <trkpt lat="44.78248" lon="-0.34845">
        <ele>96</ele>
        <time>2013-08-31T13:57:24Z</time>
      </trkpt>
      <trkpt lat="44.78247" lon="-0.34846">
        <ele>96</ele>
        <time>2013-08-31T13:57:25Z</time>
      </trkpt>
      <trkpt lat="44.78245" lon="-0.34847">
        <ele>97</ele>
        <time>2013-08-31T13:57:26Z</time>
      </trkpt>
      <trkpt lat="44.78244" lon="-0.34848">
        <ele>97</ele>
        <time>2013-08-31T13:57:27Z</time>
      </trkpt>
      <trkpt lat="44.78228" lon="-0.34859">
        <ele>97</ele>
        <time>2013-08-31T13:57:35Z</time>
      </trkpt>
      <trkpt lat="44.78209" lon="-0.3487">
        <ele>98</ele>
        <time>2013-08-31T13:57:42Z</time>
      </trkpt>
      <trkpt lat="44.78183" lon="-0.34886">
        <ele>99</ele>
        <time>2013-08-31T13:57:51Z</time>
      </trkpt>
      <trkpt lat="44.78162" lon="-0.34899">
        <ele>100</ele>
        <time>2013-08-31T13:57:59Z</time>
      </trkpt>
      <trkpt lat="44.78132" lon="-0.34915">
        <ele>101</ele>
        <time>2013-08-31T13:58:10Z</time>
      </trkpt>
      <trkpt lat="44.78104" lon="-0.34932">
        <ele>101</ele>
        <time>2013-08-31T13:58:20Z</time>
      </trkpt>
      <trkpt lat="44.78073" lon="-0.34945">
        <ele>101</ele>
        <time>2013-08-31T13:58:31Z</time>
      </trkpt>
      <trkpt lat="44.78041" lon="-0.34957">
        <ele>102</ele>
        <time>2013-08-31T13:58:41Z</time>
      </trkpt>
      <trkpt lat="44.78015" lon="-0.34963">
        <ele>103</ele>
        <time>2013-08-31T13:58:49Z</time>
      </trkpt>
      <trkpt lat="44.77994" lon="-0.34966">
        <ele>103</ele>
        <time>2013-08-31T13:58:56Z</time>
      </trkpt>
      <trkpt lat="44.77967" lon="-0.34974">
        <ele>103</ele>
        <time>2013-08-31T13:59:04Z</time>
      </trkpt>
      <trkpt lat="44.77949" lon="-0.3499">
        <ele>103</ele>
        <time>2013-08-31T13:59:11Z</time>
      </trkpt>
      <trkpt lat="44.77932" lon="-0.35027">
        <ele>103</ele>
        <time>2013-08-31T13:59:18Z</time>
      </trkpt>
      <trkpt lat="44.77914" lon="-0.35046">
        <ele>103</ele>
        <time>2013-08-31T13:59:24Z</time>
      </trkpt>
      <trkpt lat="44.77884" lon="-0.3504">
        <ele>103</ele>
        <time>2013-08-31T13:59:32Z</time>
      </trkpt>
      <trkpt lat="44.77847" lon="-0.35031">
        <ele>102</ele>
        <time>2013-08-31T13:59:41Z</time>
      </trkpt>
      <trkpt lat="44.77814" lon="-0.35028">
        <ele>102</ele>
        <time>2013-08-31T13:59:49Z</time>
      </trkpt>
      <trkpt lat="44.77809" lon="-0.35028">
        <ele>102</ele>
        <time>2013-08-31T13:59:50Z</time>
      </trkpt>
      <trkpt lat="44.77805" lon="-0.35027">
        <ele>102</ele>
        <time>2013-08-31T13:59:51Z</time>
      </trkpt>
      <trkpt lat="44.778" lon="-0.35028">
        <ele>102</ele>
        <time>2013-08-31T13:59:52Z</time>
      </trkpt>
      <trkpt lat="44.77776" lon="-0.35036">
        <ele>101</ele>
        <time>2013-08-31T13:59:59Z</time>
      </trkpt>
      <trkpt lat="44.77768" lon="-0.35043">
        <ele>101</ele>
        <time>2013-08-31T14:00:05Z</time>
      </trkpt>
      <trkpt lat="44.77764" lon="-0.35046">
        <ele>101</ele>
        <time>2013-08-31T14:00:13Z</time>
      </trkpt>
      <trkpt lat="44.77763" lon="-0.35046">
        <ele>101</ele>
        <time>2013-08-31T14:00:14Z</time>
      </trkpt>
      <trkpt lat="44.77761" lon="-0.35046">
        <ele>101</ele>
        <time>2013-08-31T14:00:15Z</time>
      </trkpt>
      <trkpt lat="44.77759" lon="-0.35044">
        <ele>101</ele>
        <time>2013-08-31T14:00:16Z</time>
      </trkpt>
      <trkpt lat="44.77757" lon="-0.35043">
        <ele>101</ele>
        <time>2013-08-31T14:00:17Z</time>
      </trkpt>
      <trkpt lat="44.77754" lon="-0.35041">
        <ele>101</ele>
        <time>2013-08-31T14:00:18Z</time>
      </trkpt>
      <trkpt lat="44.77751" lon="-0.35039">
        <ele>101</ele>
        <time>2013-08-31T14:00:19Z</time>
      </trkpt>
      <trkpt lat="44.77724" lon="-0.35021">
        <ele>100</ele>
        <time>2013-08-31T14:00:27Z</time>
      </trkpt>
      <trkpt lat="44.77695" lon="-0.35003">
        <ele>100</ele>
        <time>2013-08-31T14:00:35Z</time>
      </trkpt>
      <trkpt lat="44.77683" lon="-0.34995">
        <ele>99</ele>
        <time>2013-08-31T14:00:41Z</time>
      </trkpt>
      <trkpt lat="44.77668" lon="-0.3499">
        <ele>98</ele>
        <time>2013-08-31T14:00:50Z</time>
      </trkpt>
      <trkpt lat="44.77656" lon="-0.34986">
        <ele>97</ele>
        <time>2013-08-31T14:00:56Z</time>
      </trkpt>
      <trkpt lat="44.77655" lon="-0.34984">
        <ele>97</ele>
        <time>2013-08-31T14:00:57Z</time>
      </trkpt>
      <trkpt lat="44.77655" lon="-0.34975">
        <ele>97</ele>
        <time>2013-08-31T14:01:04Z</time>
      </trkpt>
    </trkseg>
  </trk>
</gpx>